<?xml version="1.0" encoding="UTF-8" standalone="no" ?>
<gpx xmlns="http://www.topografix.com/GPX/1/1" xmlns:xsi="http://www.w3.org/2001/XMLSchema-instance" xsi:schemaLocation="http://www.topografix.com/GPX/1/1 http://www.topografix.com/GPX/1/1/gpx.xsd" version="1.1" creator="VisuGPX - https://www.visugpx.com">
  <metadata>
    <name>CSJC La Romieu - Condom</name>
    <desc><![CDATA[Chemin de Saint Jacques de Compostelle du Puy
Etape : La Romieu - Condom]]></desc>
  </metadata>
  <trk>
    <name><![CDATA[ACTIVE LOG112622]]></name>
    <trkseg>
      <trkpt lat="43.96396" lon="0.44552">
        <ele>154</ele>
        <time>2014-06-23T09:26:22Z</time>
      </trkpt>
      <trkpt lat="43.964" lon="0.44554">
        <ele>154</ele>
        <time>2014-06-23T09:26:23Z</time>
      </trkpt>
      <trkpt lat="43.96404" lon="0.44557">
        <ele>154</ele>
        <time>2014-06-23T09:26:24Z</time>
      </trkpt>
      <trkpt lat="43.96406" lon="0.44557">
        <ele>154</ele>
        <time>2014-06-23T09:26:26Z</time>
      </trkpt>
      <trkpt lat="43.96402" lon="0.44566">
        <ele>154</ele>
        <time>2014-06-23T09:26:39Z</time>
      </trkpt>
      <trkpt lat="43.96402" lon="0.44559">
        <ele>154</ele>
        <time>2014-06-23T09:26:48Z</time>
      </trkpt>
      <trkpt lat="43.964" lon="0.44559">
        <ele>154</ele>
        <time>2014-06-23T09:26:54Z</time>
      </trkpt>
      <trkpt lat="43.96399" lon="0.44556">
        <ele>154</ele>
        <time>2014-06-23T09:27:07Z</time>
      </trkpt>
      <trkpt lat="43.96402" lon="0.44546">
        <ele>154</ele>
        <time>2014-06-23T09:27:19Z</time>
      </trkpt>
      <trkpt lat="43.96404" lon="0.44548">
        <ele>154</ele>
        <time>2014-06-23T09:27:21Z</time>
      </trkpt>
      <trkpt lat="43.96411" lon="0.44543">
        <ele>154</ele>
        <time>2014-06-23T09:27:32Z</time>
      </trkpt>
      <trkpt lat="43.96416" lon="0.44553">
        <ele>154</ele>
        <time>2014-06-23T09:28:00Z</time>
      </trkpt>
      <trkpt lat="43.96424" lon="0.44563">
        <ele>153</ele>
        <time>2014-06-23T09:28:16Z</time>
      </trkpt>
      <trkpt lat="43.96427" lon="0.44567">
        <ele>153</ele>
        <time>2014-06-23T09:28:23Z</time>
      </trkpt>
      <trkpt lat="43.96431" lon="0.44568">
        <ele>153</ele>
        <time>2014-06-23T09:28:35Z</time>
      </trkpt>
      <trkpt lat="43.96432" lon="0.44572">
        <ele>153</ele>
        <time>2014-06-23T09:28:55Z</time>
      </trkpt>
      <trkpt lat="43.96433" lon="0.4457">
        <ele>153</ele>
        <time>2014-06-23T09:29:23Z</time>
      </trkpt>
      <trkpt lat="43.96431" lon="0.44571">
        <ele>153</ele>
        <time>2014-06-23T09:30:01Z</time>
      </trkpt>
      <trkpt lat="43.96434" lon="0.44574">
        <ele>153</ele>
        <time>2014-06-23T09:30:50Z</time>
      </trkpt>
      <trkpt lat="43.96436" lon="0.44576">
        <ele>153</ele>
        <time>2014-06-23T09:30:53Z</time>
      </trkpt>
      <trkpt lat="43.96441" lon="0.4458">
        <ele>152</ele>
        <time>2014-06-23T09:31:06Z</time>
      </trkpt>
      <trkpt lat="43.96442" lon="0.44568">
        <ele>152</ele>
        <time>2014-06-23T09:31:27Z</time>
      </trkpt>
      <trkpt lat="43.96444" lon="0.4456">
        <ele>152</ele>
        <time>2014-06-23T09:31:35Z</time>
      </trkpt>
      <trkpt lat="43.96445" lon="0.44557">
        <ele>152</ele>
        <time>2014-06-23T09:31:37Z</time>
      </trkpt>
      <trkpt lat="43.96448" lon="0.44537">
        <ele>152</ele>
        <time>2014-06-23T09:31:52Z</time>
      </trkpt>
      <trkpt lat="43.96449" lon="0.4451">
        <ele>152</ele>
        <time>2014-06-23T09:32:10Z</time>
      </trkpt>
      <trkpt lat="43.96449" lon="0.44479">
        <ele>152</ele>
        <time>2014-06-23T09:32:30Z</time>
      </trkpt>
      <trkpt lat="43.96451" lon="0.44465">
        <ele>152</ele>
        <time>2014-06-23T09:32:40Z</time>
      </trkpt>
      <trkpt lat="43.96457" lon="0.44429">
        <ele>153</ele>
        <time>2014-06-23T09:33:04Z</time>
      </trkpt>
      <trkpt lat="43.96459" lon="0.44415">
        <ele>154</ele>
        <time>2014-06-23T09:33:14Z</time>
      </trkpt>
      <trkpt lat="43.9646" lon="0.44405">
        <ele>154</ele>
        <time>2014-06-23T09:33:21Z</time>
      </trkpt>
      <trkpt lat="43.96451" lon="0.44384">
        <ele>155</ele>
        <time>2014-06-23T09:33:39Z</time>
      </trkpt>
      <trkpt lat="43.96437" lon="0.44371">
        <ele>155</ele>
        <time>2014-06-23T09:33:57Z</time>
      </trkpt>
      <trkpt lat="43.96423" lon="0.44359">
        <ele>156</ele>
        <time>2014-06-23T09:34:14Z</time>
      </trkpt>
      <trkpt lat="43.96409" lon="0.44347">
        <ele>158</ele>
        <time>2014-06-23T09:34:31Z</time>
      </trkpt>
      <trkpt lat="43.96395" lon="0.44335">
        <ele>158</ele>
        <time>2014-06-23T09:34:48Z</time>
      </trkpt>
      <trkpt lat="43.96379" lon="0.44315">
        <ele>160</ele>
        <time>2014-06-23T09:35:10Z</time>
      </trkpt>
      <trkpt lat="43.96375" lon="0.44309">
        <ele>160</ele>
        <time>2014-06-23T09:35:17Z</time>
      </trkpt>
      <trkpt lat="43.96371" lon="0.44302">
        <ele>160</ele>
        <time>2014-06-23T09:35:24Z</time>
      </trkpt>
      <trkpt lat="43.96369" lon="0.44299">
        <ele>161</ele>
        <time>2014-06-23T09:35:27Z</time>
      </trkpt>
      <trkpt lat="43.96358" lon="0.44277">
        <ele>161</ele>
        <time>2014-06-23T09:35:45Z</time>
      </trkpt>
      <trkpt lat="43.96347" lon="0.44253">
        <ele>162</ele>
        <time>2014-06-23T09:36:06Z</time>
      </trkpt>
      <trkpt lat="43.96344" lon="0.44231">
        <ele>164</ele>
        <time>2014-06-23T09:36:22Z</time>
      </trkpt>
      <trkpt lat="43.96344" lon="0.44227">
        <ele>165</ele>
        <time>2014-06-23T09:36:25Z</time>
      </trkpt>
      <trkpt lat="43.9635" lon="0.44214">
        <ele>165</ele>
        <time>2014-06-23T09:36:36Z</time>
      </trkpt>
      <trkpt lat="43.96355" lon="0.44206">
        <ele>166</ele>
        <time>2014-06-23T09:36:44Z</time>
      </trkpt>
      <trkpt lat="43.9636" lon="0.442">
        <ele>166</ele>
        <time>2014-06-23T09:36:50Z</time>
      </trkpt>
      <trkpt lat="43.96371" lon="0.44186">
        <ele>166</ele>
        <time>2014-06-23T09:37:04Z</time>
      </trkpt>
      <trkpt lat="43.96376" lon="0.44176">
        <ele>166</ele>
        <time>2014-06-23T09:37:13Z</time>
      </trkpt>
      <trkpt lat="43.96384" lon="0.4416">
        <ele>168</ele>
        <time>2014-06-23T09:37:28Z</time>
      </trkpt>
      <trkpt lat="43.96388" lon="0.44143">
        <ele>168</ele>
        <time>2014-06-23T09:37:41Z</time>
      </trkpt>
      <trkpt lat="43.9639" lon="0.44134">
        <ele>168</ele>
        <time>2014-06-23T09:37:47Z</time>
      </trkpt>
      <trkpt lat="43.96391" lon="0.44128">
        <ele>168</ele>
        <time>2014-06-23T09:37:51Z</time>
      </trkpt>
      <trkpt lat="43.96382" lon="0.44117">
        <ele>169</ele>
        <time>2014-06-23T09:38:07Z</time>
      </trkpt>
      <trkpt lat="43.96382" lon="0.44117">
        <ele>169</ele>
        <time>2014-06-23T09:38:08Z</time>
      </trkpt>
      <trkpt lat="43.96368" lon="0.44108">
        <ele>169</ele>
        <time>2014-06-23T09:38:21Z</time>
      </trkpt>
      <trkpt lat="43.96351" lon="0.44095">
        <ele>169</ele>
        <time>2014-06-23T09:38:37Z</time>
      </trkpt>
      <trkpt lat="43.96337" lon="0.44087">
        <ele>169</ele>
        <time>2014-06-23T09:38:53Z</time>
      </trkpt>
      <trkpt lat="43.96315" lon="0.44078">
        <ele>167</ele>
        <time>2014-06-23T09:39:14Z</time>
      </trkpt>
      <trkpt lat="43.96294" lon="0.44073">
        <ele>166</ele>
        <time>2014-06-23T09:39:35Z</time>
      </trkpt>
      <trkpt lat="43.96273" lon="0.44068">
        <ele>165</ele>
        <time>2014-06-23T09:39:55Z</time>
      </trkpt>
      <trkpt lat="43.96249" lon="0.44062">
        <ele>163</ele>
        <time>2014-06-23T09:40:18Z</time>
      </trkpt>
      <trkpt lat="43.96225" lon="0.44055">
        <ele>162</ele>
        <time>2014-06-23T09:40:41Z</time>
      </trkpt>
      <trkpt lat="43.96203" lon="0.44049">
        <ele>162</ele>
        <time>2014-06-23T09:41:02Z</time>
      </trkpt>
      <trkpt lat="43.96179" lon="0.44042">
        <ele>162</ele>
        <time>2014-06-23T09:41:25Z</time>
      </trkpt>
      <trkpt lat="43.96161" lon="0.44037">
        <ele>162</ele>
        <time>2014-06-23T09:41:43Z</time>
      </trkpt>
      <trkpt lat="43.96141" lon="0.44031">
        <ele>162</ele>
        <time>2014-06-23T09:42:03Z</time>
      </trkpt>
      <trkpt lat="43.96131" lon="0.44027">
        <ele>162</ele>
        <time>2014-06-23T09:42:15Z</time>
      </trkpt>
      <trkpt lat="43.96119" lon="0.44024">
        <ele>162</ele>
        <time>2014-06-23T09:42:27Z</time>
      </trkpt>
      <trkpt lat="43.96107" lon="0.44021">
        <ele>163</ele>
        <time>2014-06-23T09:42:39Z</time>
      </trkpt>
      <trkpt lat="43.96105" lon="0.4402">
        <ele>163</ele>
        <time>2014-06-23T09:42:41Z</time>
      </trkpt>
      <trkpt lat="43.96083" lon="0.44017">
        <ele>164</ele>
        <time>2014-06-23T09:43:01Z</time>
      </trkpt>
      <trkpt lat="43.96062" lon="0.44021">
        <ele>164</ele>
        <time>2014-06-23T09:43:20Z</time>
      </trkpt>
      <trkpt lat="43.9606" lon="0.44022">
        <ele>164</ele>
        <time>2014-06-23T09:43:22Z</time>
      </trkpt>
      <trkpt lat="43.9604" lon="0.44027">
        <ele>164</ele>
        <time>2014-06-23T09:43:41Z</time>
      </trkpt>
      <trkpt lat="43.96015" lon="0.44033">
        <ele>165</ele>
        <time>2014-06-23T09:44:03Z</time>
      </trkpt>
      <trkpt lat="43.95993" lon="0.44039">
        <ele>164</ele>
        <time>2014-06-23T09:44:24Z</time>
      </trkpt>
      <trkpt lat="43.95976" lon="0.44045">
        <ele>164</ele>
        <time>2014-06-23T09:44:41Z</time>
      </trkpt>
      <trkpt lat="43.95954" lon="0.44057">
        <ele>164</ele>
        <time>2014-06-23T09:45:02Z</time>
      </trkpt>
      <trkpt lat="43.95934" lon="0.44065">
        <ele>164</ele>
        <time>2014-06-23T09:45:22Z</time>
      </trkpt>
      <trkpt lat="43.9593" lon="0.44053">
        <ele>164</ele>
        <time>2014-06-23T09:45:33Z</time>
      </trkpt>
      <trkpt lat="43.95929" lon="0.44037">
        <ele>164</ele>
        <time>2014-06-23T09:45:45Z</time>
      </trkpt>
      <trkpt lat="43.95928" lon="0.44027">
        <ele>163</ele>
        <time>2014-06-23T09:45:52Z</time>
      </trkpt>
      <trkpt lat="43.95925" lon="0.43994">
        <ele>161</ele>
        <time>2014-06-23T09:46:17Z</time>
      </trkpt>
      <trkpt lat="43.95923" lon="0.43965">
        <ele>160</ele>
        <time>2014-06-23T09:46:37Z</time>
      </trkpt>
      <trkpt lat="43.95921" lon="0.43935">
        <ele>158</ele>
        <time>2014-06-23T09:46:57Z</time>
      </trkpt>
      <trkpt lat="43.95919" lon="0.43899">
        <ele>155</ele>
        <time>2014-06-23T09:47:21Z</time>
      </trkpt>
      <trkpt lat="43.95917" lon="0.43858">
        <ele>154</ele>
        <time>2014-06-23T09:47:48Z</time>
      </trkpt>
      <trkpt lat="43.95915" lon="0.43834">
        <ele>152</ele>
        <time>2014-06-23T09:48:05Z</time>
      </trkpt>
      <trkpt lat="43.95913" lon="0.43798">
        <ele>152</ele>
        <time>2014-06-23T09:48:29Z</time>
      </trkpt>
      <trkpt lat="43.95912" lon="0.43771">
        <ele>152</ele>
        <time>2014-06-23T09:48:47Z</time>
      </trkpt>
      <trkpt lat="43.95909" lon="0.43741">
        <ele>150</ele>
        <time>2014-06-23T09:49:08Z</time>
      </trkpt>
      <trkpt lat="43.95908" lon="0.4374">
        <ele>150</ele>
        <time>2014-06-23T09:49:30Z</time>
      </trkpt>
      <trkpt lat="43.95907" lon="0.43745">
        <ele>150</ele>
        <time>2014-06-23T09:51:22Z</time>
      </trkpt>
      <trkpt lat="43.95907" lon="0.43745">
        <ele>150</ele>
        <time>2014-06-23T09:52:03Z</time>
      </trkpt>
      <trkpt lat="43.95906" lon="0.43729">
        <ele>150</ele>
        <time>2014-06-23T09:52:33Z</time>
      </trkpt>
      <trkpt lat="43.95907" lon="0.43709">
        <ele>150</ele>
        <time>2014-06-23T09:52:48Z</time>
      </trkpt>
      <trkpt lat="43.95905" lon="0.43697">
        <ele>150</ele>
        <time>2014-06-23T09:53:03Z</time>
      </trkpt>
      <trkpt lat="43.95907" lon="0.43689">
        <ele>150</ele>
        <time>2014-06-23T09:53:17Z</time>
      </trkpt>
      <trkpt lat="43.95908" lon="0.43661">
        <ele>149</ele>
        <time>2014-06-23T09:53:34Z</time>
      </trkpt>
      <trkpt lat="43.95914" lon="0.43638">
        <ele>148</ele>
        <time>2014-06-23T09:53:52Z</time>
      </trkpt>
      <trkpt lat="43.95921" lon="0.43619">
        <ele>146</ele>
        <time>2014-06-23T09:54:07Z</time>
      </trkpt>
      <trkpt lat="43.95925" lon="0.43601">
        <ele>146</ele>
        <time>2014-06-23T09:54:21Z</time>
      </trkpt>
      <trkpt lat="43.95928" lon="0.4358">
        <ele>145</ele>
        <time>2014-06-23T09:54:35Z</time>
      </trkpt>
      <trkpt lat="43.95931" lon="0.43558">
        <ele>143</ele>
        <time>2014-06-23T09:54:52Z</time>
      </trkpt>
      <trkpt lat="43.95933" lon="0.43542">
        <ele>142</ele>
        <time>2014-06-23T09:55:03Z</time>
      </trkpt>
      <trkpt lat="43.95936" lon="0.43523">
        <ele>142</ele>
        <time>2014-06-23T09:55:18Z</time>
      </trkpt>
      <trkpt lat="43.95938" lon="0.4351">
        <ele>141</ele>
        <time>2014-06-23T09:55:30Z</time>
      </trkpt>
      <trkpt lat="43.95943" lon="0.43484">
        <ele>137</ele>
        <time>2014-06-23T09:55:47Z</time>
      </trkpt>
      <trkpt lat="43.95947" lon="0.43464">
        <ele>135</ele>
        <time>2014-06-23T09:56:02Z</time>
      </trkpt>
      <trkpt lat="43.95948" lon="0.43445">
        <ele>134</ele>
        <time>2014-06-23T09:56:19Z</time>
      </trkpt>
      <trkpt lat="43.95949" lon="0.43431">
        <ele>133</ele>
        <time>2014-06-23T09:56:30Z</time>
      </trkpt>
      <trkpt lat="43.95949" lon="0.43415">
        <ele>129</ele>
        <time>2014-06-23T09:56:47Z</time>
      </trkpt>
      <trkpt lat="43.95947" lon="0.43401">
        <ele>129</ele>
        <time>2014-06-23T09:57:01Z</time>
      </trkpt>
      <trkpt lat="43.95939" lon="0.43398">
        <ele>129</ele>
        <time>2014-06-23T09:57:16Z</time>
      </trkpt>
      <trkpt lat="43.95919" lon="0.43397">
        <ele>129</ele>
        <time>2014-06-23T09:57:32Z</time>
      </trkpt>
      <trkpt lat="43.95899" lon="0.43396">
        <ele>130</ele>
        <time>2014-06-23T09:57:50Z</time>
      </trkpt>
      <trkpt lat="43.95887" lon="0.43395">
        <ele>129</ele>
        <time>2014-06-23T09:58:04Z</time>
      </trkpt>
      <trkpt lat="43.95872" lon="0.43395">
        <ele>129</ele>
        <time>2014-06-23T09:58:18Z</time>
      </trkpt>
      <trkpt lat="43.9586" lon="0.43398">
        <ele>129</ele>
        <time>2014-06-23T09:58:32Z</time>
      </trkpt>
      <trkpt lat="43.95845" lon="0.43393">
        <ele>129</ele>
        <time>2014-06-23T09:58:44Z</time>
      </trkpt>
      <trkpt lat="43.95833" lon="0.43397">
        <ele>130</ele>
        <time>2014-06-23T09:58:59Z</time>
      </trkpt>
      <trkpt lat="43.95817" lon="0.43393">
        <ele>130</ele>
        <time>2014-06-23T09:59:13Z</time>
      </trkpt>
      <trkpt lat="43.95811" lon="0.43389">
        <ele>130</ele>
        <time>2014-06-23T09:59:24Z</time>
      </trkpt>
      <trkpt lat="43.95809" lon="0.43391">
        <ele>130</ele>
        <time>2014-06-23T09:59:46Z</time>
      </trkpt>
      <trkpt lat="43.95806" lon="0.43386">
        <ele>130</ele>
        <time>2014-06-23T10:00:15Z</time>
      </trkpt>
      <trkpt lat="43.9581" lon="0.43391">
        <ele>130</ele>
        <time>2014-06-23T10:00:39Z</time>
      </trkpt>
      <trkpt lat="43.95808" lon="0.43389">
        <ele>130</ele>
        <time>2014-06-23T10:01:05Z</time>
      </trkpt>
      <trkpt lat="43.95808" lon="0.43385">
        <ele>130</ele>
        <time>2014-06-23T10:01:23Z</time>
      </trkpt>
      <trkpt lat="43.95811" lon="0.43382">
        <ele>130</ele>
        <time>2014-06-23T10:01:44Z</time>
      </trkpt>
      <trkpt lat="43.95816" lon="0.43378">
        <ele>130</ele>
        <time>2014-06-23T10:02:08Z</time>
      </trkpt>
      <trkpt lat="43.95818" lon="0.43379">
        <ele>130</ele>
        <time>2014-06-23T10:02:31Z</time>
      </trkpt>
      <trkpt lat="43.95816" lon="0.43376">
        <ele>130</ele>
        <time>2014-06-23T10:02:50Z</time>
      </trkpt>
      <trkpt lat="43.95813" lon="0.43373">
        <ele>130</ele>
        <time>2014-06-23T10:03:10Z</time>
      </trkpt>
      <trkpt lat="43.95812" lon="0.43373">
        <ele>130</ele>
        <time>2014-06-23T10:03:17Z</time>
      </trkpt>
      <trkpt lat="43.95812" lon="0.43372">
        <ele>130</ele>
        <time>2014-06-23T10:03:18Z</time>
      </trkpt>
      <trkpt lat="43.95812" lon="0.43373">
        <ele>130</ele>
        <time>2014-06-23T10:03:21Z</time>
      </trkpt>
      <trkpt lat="43.95812" lon="0.43372">
        <ele>130</ele>
        <time>2014-06-23T10:03:26Z</time>
      </trkpt>
      <trkpt lat="43.95813" lon="0.43373">
        <ele>130</ele>
        <time>2014-06-23T10:03:50Z</time>
      </trkpt>
      <trkpt lat="43.95811" lon="0.43372">
        <ele>130</ele>
        <time>2014-06-23T10:04:15Z</time>
      </trkpt>
      <trkpt lat="43.9581" lon="0.43372">
        <ele>130</ele>
        <time>2014-06-23T10:04:43Z</time>
      </trkpt>
      <trkpt lat="43.95808" lon="0.43371">
        <ele>130</ele>
        <time>2014-06-23T10:05:07Z</time>
      </trkpt>
      <trkpt lat="43.95811" lon="0.43375">
        <ele>130</ele>
        <time>2014-06-23T10:05:40Z</time>
      </trkpt>
      <trkpt lat="43.95815" lon="0.43377">
        <ele>130</ele>
        <time>2014-06-23T10:06:08Z</time>
      </trkpt>
      <trkpt lat="43.95814" lon="0.43375">
        <ele>130</ele>
        <time>2014-06-23T10:06:26Z</time>
      </trkpt>
      <trkpt lat="43.95811" lon="0.43371">
        <ele>130</ele>
        <time>2014-06-23T10:06:53Z</time>
      </trkpt>
      <trkpt lat="43.95809" lon="0.43369">
        <ele>130</ele>
        <time>2014-06-23T10:07:13Z</time>
      </trkpt>
      <trkpt lat="43.95809" lon="0.43369">
        <ele>130</ele>
        <time>2014-06-23T10:07:15Z</time>
      </trkpt>
      <trkpt lat="43.95812" lon="0.43366">
        <ele>130</ele>
        <time>2014-06-23T10:07:40Z</time>
      </trkpt>
      <trkpt lat="43.95813" lon="0.43364">
        <ele>130</ele>
        <time>2014-06-23T10:08:01Z</time>
      </trkpt>
      <trkpt lat="43.95825" lon="0.43365">
        <ele>130</ele>
        <time>2014-06-23T10:08:18Z</time>
      </trkpt>
      <trkpt lat="43.95834" lon="0.43365">
        <ele>129</ele>
        <time>2014-06-23T10:08:28Z</time>
      </trkpt>
      <trkpt lat="43.95847" lon="0.43361">
        <ele>129</ele>
        <time>2014-06-23T10:08:42Z</time>
      </trkpt>
      <trkpt lat="43.9586" lon="0.43356">
        <ele>129</ele>
        <time>2014-06-23T10:08:56Z</time>
      </trkpt>
      <trkpt lat="43.95868" lon="0.43353">
        <ele>129</ele>
        <time>2014-06-23T10:09:04Z</time>
      </trkpt>
      <trkpt lat="43.95887" lon="0.4335">
        <ele>128</ele>
        <time>2014-06-23T10:09:22Z</time>
      </trkpt>
      <trkpt lat="43.95902" lon="0.43342">
        <ele>128</ele>
        <time>2014-06-23T10:09:38Z</time>
      </trkpt>
      <trkpt lat="43.95905" lon="0.43337">
        <ele>127</ele>
        <time>2014-06-23T10:09:42Z</time>
      </trkpt>
      <trkpt lat="43.95917" lon="0.43322">
        <ele>127</ele>
        <time>2014-06-23T10:09:58Z</time>
      </trkpt>
      <trkpt lat="43.9593" lon="0.43307">
        <ele>127</ele>
        <time>2014-06-23T10:10:14Z</time>
      </trkpt>
      <trkpt lat="43.95948" lon="0.43294">
        <ele>128</ele>
        <time>2014-06-23T10:10:34Z</time>
      </trkpt>
      <trkpt lat="43.95962" lon="0.43282">
        <ele>128</ele>
        <time>2014-06-23T10:10:50Z</time>
      </trkpt>
      <trkpt lat="43.95977" lon="0.43272">
        <ele>127</ele>
        <time>2014-06-23T10:11:06Z</time>
      </trkpt>
      <trkpt lat="43.95993" lon="0.43259">
        <ele>127</ele>
        <time>2014-06-23T10:11:24Z</time>
      </trkpt>
      <trkpt lat="43.96007" lon="0.43252">
        <ele>127</ele>
        <time>2014-06-23T10:11:39Z</time>
      </trkpt>
      <trkpt lat="43.96024" lon="0.43242">
        <ele>129</ele>
        <time>2014-06-23T10:11:56Z</time>
      </trkpt>
      <trkpt lat="43.96035" lon="0.43234">
        <ele>130</ele>
        <time>2014-06-23T10:12:08Z</time>
      </trkpt>
      <trkpt lat="43.96048" lon="0.43226">
        <ele>130</ele>
        <time>2014-06-23T10:12:22Z</time>
      </trkpt>
      <trkpt lat="43.96068" lon="0.43215">
        <ele>130</ele>
        <time>2014-06-23T10:12:41Z</time>
      </trkpt>
      <trkpt lat="43.96088" lon="0.43203">
        <ele>129</ele>
        <time>2014-06-23T10:13:01Z</time>
      </trkpt>
      <trkpt lat="43.96106" lon="0.43186">
        <ele>130</ele>
        <time>2014-06-23T10:13:21Z</time>
      </trkpt>
      <trkpt lat="43.96123" lon="0.43164">
        <ele>132</ele>
        <time>2014-06-23T10:13:42Z</time>
      </trkpt>
      <trkpt lat="43.96141" lon="0.43139">
        <ele>132</ele>
        <time>2014-06-23T10:14:06Z</time>
      </trkpt>
      <trkpt lat="43.96158" lon="0.43119">
        <ele>132</ele>
        <time>2014-06-23T10:14:27Z</time>
      </trkpt>
      <trkpt lat="43.96174" lon="0.43101">
        <ele>129</ele>
        <time>2014-06-23T10:14:47Z</time>
      </trkpt>
      <trkpt lat="43.9619" lon="0.43088">
        <ele>129</ele>
        <time>2014-06-23T10:15:04Z</time>
      </trkpt>
      <trkpt lat="43.96191" lon="0.43087">
        <ele>129</ele>
        <time>2014-06-23T10:15:06Z</time>
      </trkpt>
      <trkpt lat="43.96211" lon="0.4307">
        <ele>131</ele>
        <time>2014-06-23T10:15:28Z</time>
      </trkpt>
      <trkpt lat="43.9623" lon="0.43056">
        <ele>131</ele>
        <time>2014-06-23T10:15:48Z</time>
      </trkpt>
      <trkpt lat="43.96237" lon="0.43047">
        <ele>131</ele>
        <time>2014-06-23T10:16:07Z</time>
      </trkpt>
      <trkpt lat="43.96233" lon="0.43044">
        <ele>131</ele>
        <time>2014-06-23T10:16:35Z</time>
      </trkpt>
      <trkpt lat="43.96241" lon="0.4305">
        <ele>131</ele>
        <time>2014-06-23T10:17:46Z</time>
      </trkpt>
      <trkpt lat="43.96242" lon="0.43049">
        <ele>131</ele>
        <time>2014-06-23T10:18:05Z</time>
      </trkpt>
      <trkpt lat="43.96246" lon="0.43042">
        <ele>131</ele>
        <time>2014-06-23T10:18:18Z</time>
      </trkpt>
      <trkpt lat="43.9626" lon="0.43024">
        <ele>130</ele>
        <time>2014-06-23T10:18:36Z</time>
      </trkpt>
      <trkpt lat="43.96271" lon="0.43004">
        <ele>131</ele>
        <time>2014-06-23T10:18:55Z</time>
      </trkpt>
      <trkpt lat="43.96282" lon="0.42982">
        <ele>133</ele>
        <time>2014-06-23T10:19:14Z</time>
      </trkpt>
      <trkpt lat="43.96292" lon="0.42958">
        <ele>134</ele>
        <time>2014-06-23T10:19:33Z</time>
      </trkpt>
      <trkpt lat="43.96304" lon="0.42938">
        <ele>134</ele>
        <time>2014-06-23T10:19:53Z</time>
      </trkpt>
      <trkpt lat="43.96315" lon="0.42924">
        <ele>133</ele>
        <time>2014-06-23T10:20:08Z</time>
      </trkpt>
      <trkpt lat="43.96331" lon="0.42907">
        <ele>134</ele>
        <time>2014-06-23T10:20:28Z</time>
      </trkpt>
      <trkpt lat="43.96348" lon="0.42896">
        <ele>132</ele>
        <time>2014-06-23T10:20:46Z</time>
      </trkpt>
      <trkpt lat="43.96365" lon="0.42881">
        <ele>132</ele>
        <time>2014-06-23T10:21:05Z</time>
      </trkpt>
      <trkpt lat="43.96382" lon="0.42864">
        <ele>132</ele>
        <time>2014-06-23T10:21:25Z</time>
      </trkpt>
      <trkpt lat="43.96397" lon="0.42852">
        <ele>131</ele>
        <time>2014-06-23T10:21:42Z</time>
      </trkpt>
      <trkpt lat="43.96402" lon="0.42849">
        <ele>130</ele>
        <time>2014-06-23T10:21:48Z</time>
      </trkpt>
      <trkpt lat="43.96411" lon="0.42846">
        <ele>130</ele>
        <time>2014-06-23T10:22:08Z</time>
      </trkpt>
      <trkpt lat="43.96409" lon="0.42839">
        <ele>129</ele>
        <time>2014-06-23T10:22:29Z</time>
      </trkpt>
      <trkpt lat="43.96416" lon="0.42838">
        <ele>129</ele>
        <time>2014-06-23T10:23:02Z</time>
      </trkpt>
      <trkpt lat="43.96416" lon="0.42837">
        <ele>129</ele>
        <time>2014-06-23T10:23:20Z</time>
      </trkpt>
      <trkpt lat="43.96416" lon="0.42837">
        <ele>129</ele>
        <time>2014-06-23T10:23:21Z</time>
      </trkpt>
      <trkpt lat="43.96416" lon="0.42837">
        <ele>129</ele>
        <time>2014-06-23T10:23:23Z</time>
      </trkpt>
      <trkpt lat="43.96416" lon="0.42837">
        <ele>129</ele>
        <time>2014-06-23T10:23:24Z</time>
      </trkpt>
      <trkpt lat="43.96416" lon="0.42837">
        <ele>129</ele>
        <time>2014-06-23T10:23:25Z</time>
      </trkpt>
      <trkpt lat="43.9642" lon="0.42838">
        <ele>128</ele>
        <time>2014-06-23T10:25:39Z</time>
      </trkpt>
      <trkpt lat="43.9642" lon="0.4283">
        <ele>128</ele>
        <time>2014-06-23T10:25:55Z</time>
      </trkpt>
      <trkpt lat="43.96417" lon="0.42827">
        <ele>130</ele>
        <time>2014-06-23T10:26:13Z</time>
      </trkpt>
      <trkpt lat="43.96417" lon="0.42829">
        <ele>128</ele>
        <time>2014-06-23T10:27:35Z</time>
      </trkpt>
      <trkpt lat="43.96415" lon="0.42832">
        <ele>129</ele>
        <time>2014-06-23T10:27:48Z</time>
      </trkpt>
      <trkpt lat="43.96414" lon="0.42838">
        <ele>129</ele>
        <time>2014-06-23T10:28:08Z</time>
      </trkpt>
      <trkpt lat="43.96414" lon="0.42838">
        <ele>129</ele>
        <time>2014-06-23T10:28:10Z</time>
      </trkpt>
      <trkpt lat="43.96414" lon="0.42838">
        <ele>129</ele>
        <time>2014-06-23T10:28:11Z</time>
      </trkpt>
      <trkpt lat="43.96415" lon="0.4284">
        <ele>129</ele>
        <time>2014-06-23T10:28:31Z</time>
      </trkpt>
      <trkpt lat="43.96414" lon="0.42839">
        <ele>129</ele>
        <time>2014-06-23T10:28:35Z</time>
      </trkpt>
      <trkpt lat="43.96414" lon="0.42841">
        <ele>129</ele>
        <time>2014-06-23T10:28:41Z</time>
      </trkpt>
      <trkpt lat="43.96414" lon="0.42841">
        <ele>129</ele>
        <time>2014-06-23T10:28:42Z</time>
      </trkpt>
      <trkpt lat="43.96414" lon="0.42841">
        <ele>129</ele>
        <time>2014-06-23T10:28:43Z</time>
      </trkpt>
      <trkpt lat="43.96414" lon="0.42841">
        <ele>129</ele>
        <time>2014-06-23T10:28:44Z</time>
      </trkpt>
      <trkpt lat="43.96411" lon="0.42846">
        <ele>130</ele>
        <time>2014-06-23T10:29:12Z</time>
      </trkpt>
      <trkpt lat="43.96412" lon="0.42845">
        <ele>130</ele>
        <time>2014-06-23T10:29:14Z</time>
      </trkpt>
      <trkpt lat="43.96418" lon="0.42843">
        <ele>128</ele>
        <time>2014-06-23T10:29:30Z</time>
      </trkpt>
      <trkpt lat="43.96414" lon="0.42835">
        <ele>129</ele>
        <time>2014-06-23T10:29:59Z</time>
      </trkpt>
      <trkpt lat="43.96411" lon="0.42833">
        <ele>130</ele>
        <time>2014-06-23T10:30:18Z</time>
      </trkpt>
      <trkpt lat="43.96415" lon="0.4284">
        <ele>129</ele>
        <time>2014-06-23T10:30:39Z</time>
      </trkpt>
      <trkpt lat="43.9641" lon="0.42838">
        <ele>129</ele>
        <time>2014-06-23T10:31:11Z</time>
      </trkpt>
      <trkpt lat="43.96417" lon="0.4282">
        <ele>129</ele>
        <time>2014-06-23T10:31:48Z</time>
      </trkpt>
      <trkpt lat="43.96412" lon="0.42816">
        <ele>133</ele>
        <time>2014-06-23T10:31:57Z</time>
      </trkpt>
      <trkpt lat="43.96412" lon="0.42815">
        <ele>133</ele>
        <time>2014-06-23T10:31:58Z</time>
      </trkpt>
      <trkpt lat="43.96404" lon="0.42815">
        <ele>134</ele>
        <time>2014-06-23T10:32:19Z</time>
      </trkpt>
      <trkpt lat="43.96404" lon="0.42821">
        <ele>133</ele>
        <time>2014-06-23T10:32:39Z</time>
      </trkpt>
      <trkpt lat="43.96405" lon="0.42823">
        <ele>133</ele>
        <time>2014-06-23T10:32:41Z</time>
      </trkpt>
      <trkpt lat="43.96409" lon="0.42843">
        <ele>130</ele>
        <time>2014-06-23T10:33:03Z</time>
      </trkpt>
      <trkpt lat="43.96419" lon="0.4283">
        <ele>128</ele>
        <time>2014-06-23T10:33:35Z</time>
      </trkpt>
      <trkpt lat="43.96417" lon="0.42833">
        <ele>128</ele>
        <time>2014-06-23T10:33:48Z</time>
      </trkpt>
      <trkpt lat="43.96417" lon="0.42834">
        <ele>128</ele>
        <time>2014-06-23T10:33:50Z</time>
      </trkpt>
      <trkpt lat="43.96417" lon="0.42836">
        <ele>128</ele>
        <time>2014-06-23T10:33:52Z</time>
      </trkpt>
      <trkpt lat="43.9642" lon="0.42839">
        <ele>128</ele>
        <time>2014-06-23T10:34:11Z</time>
      </trkpt>
      <trkpt lat="43.9642" lon="0.42839">
        <ele>128</ele>
        <time>2014-06-23T10:34:12Z</time>
      </trkpt>
      <trkpt lat="43.9642" lon="0.42839">
        <ele>128</ele>
        <time>2014-06-23T10:34:14Z</time>
      </trkpt>
      <trkpt lat="43.96417" lon="0.42836">
        <ele>128</ele>
        <time>2014-06-23T10:34:29Z</time>
      </trkpt>
      <trkpt lat="43.96418" lon="0.42833">
        <ele>128</ele>
        <time>2014-06-23T10:34:40Z</time>
      </trkpt>
      <trkpt lat="43.96418" lon="0.42833">
        <ele>128</ele>
        <time>2014-06-23T10:34:41Z</time>
      </trkpt>
      <trkpt lat="43.96418" lon="0.42833">
        <ele>128</ele>
        <time>2014-06-23T10:34:43Z</time>
      </trkpt>
      <trkpt lat="43.96416" lon="0.42831">
        <ele>129</ele>
        <time>2014-06-23T10:34:50Z</time>
      </trkpt>
      <trkpt lat="43.96411" lon="0.42822">
        <ele>132</ele>
        <time>2014-06-23T10:35:18Z</time>
      </trkpt>
      <trkpt lat="43.96409" lon="0.42819">
        <ele>133</ele>
        <time>2014-06-23T10:35:50Z</time>
      </trkpt>
      <trkpt lat="43.96416" lon="0.42828">
        <ele>130</ele>
        <time>2014-06-23T10:36:22Z</time>
      </trkpt>
      <trkpt lat="43.96415" lon="0.42831">
        <ele>129</ele>
        <time>2014-06-23T10:36:38Z</time>
      </trkpt>
      <trkpt lat="43.96417" lon="0.42829">
        <ele>130</ele>
        <time>2014-06-23T10:36:58Z</time>
      </trkpt>
      <trkpt lat="43.96411" lon="0.42825">
        <ele>131</ele>
        <time>2014-06-23T10:37:21Z</time>
      </trkpt>
      <trkpt lat="43.96411" lon="0.42831">
        <ele>130</ele>
        <time>2014-06-23T10:37:36Z</time>
      </trkpt>
      <trkpt lat="43.96409" lon="0.42823">
        <ele>132</ele>
        <time>2014-06-23T10:38:16Z</time>
      </trkpt>
      <trkpt lat="43.96407" lon="0.42824">
        <ele>132</ele>
        <time>2014-06-23T10:38:29Z</time>
      </trkpt>
      <trkpt lat="43.96404" lon="0.42822">
        <ele>133</ele>
        <time>2014-06-23T10:38:50Z</time>
      </trkpt>
      <trkpt lat="43.9641" lon="0.4282">
        <ele>132</ele>
        <time>2014-06-23T10:39:04Z</time>
      </trkpt>
      <trkpt lat="43.96412" lon="0.42818">
        <ele>133</ele>
        <time>2014-06-23T10:39:21Z</time>
      </trkpt>
      <trkpt lat="43.96413" lon="0.42824">
        <ele>131</ele>
        <time>2014-06-23T10:39:58Z</time>
      </trkpt>
      <trkpt lat="43.96412" lon="0.42832">
        <ele>130</ele>
        <time>2014-06-23T10:40:18Z</time>
      </trkpt>
      <trkpt lat="43.96412" lon="0.42833">
        <ele>130</ele>
        <time>2014-06-23T10:40:24Z</time>
      </trkpt>
      <trkpt lat="43.96412" lon="0.42832">
        <ele>130</ele>
        <time>2014-06-23T10:40:25Z</time>
      </trkpt>
      <trkpt lat="43.96409" lon="0.4283">
        <ele>131</ele>
        <time>2014-06-23T10:40:46Z</time>
      </trkpt>
      <trkpt lat="43.96415" lon="0.42836">
        <ele>128</ele>
        <time>2014-06-23T10:41:07Z</time>
      </trkpt>
      <trkpt lat="43.96415" lon="0.42836">
        <ele>128</ele>
        <time>2014-06-23T10:41:08Z</time>
      </trkpt>
      <trkpt lat="43.96416" lon="0.42836">
        <ele>128</ele>
        <time>2014-06-23T10:41:11Z</time>
      </trkpt>
      <trkpt lat="43.96419" lon="0.42839">
        <ele>128</ele>
        <time>2014-06-23T10:41:28Z</time>
      </trkpt>
      <trkpt lat="43.9642" lon="0.4284">
        <ele>128</ele>
        <time>2014-06-23T10:41:30Z</time>
      </trkpt>
      <trkpt lat="43.9642" lon="0.42841">
        <ele>128</ele>
        <time>2014-06-23T10:41:31Z</time>
      </trkpt>
      <trkpt lat="43.96419" lon="0.42819">
        <ele>129</ele>
        <time>2014-06-23T10:42:21Z</time>
      </trkpt>
      <trkpt lat="43.96421" lon="0.42822">
        <ele>129</ele>
        <time>2014-06-23T10:42:22Z</time>
      </trkpt>
      <trkpt lat="43.96424" lon="0.42831">
        <ele>128</ele>
        <time>2014-06-23T10:42:42Z</time>
      </trkpt>
      <trkpt lat="43.96421" lon="0.42822">
        <ele>129</ele>
        <time>2014-06-23T10:43:03Z</time>
      </trkpt>
      <trkpt lat="43.96419" lon="0.42817">
        <ele>129</ele>
        <time>2014-06-23T10:43:17Z</time>
      </trkpt>
      <trkpt lat="43.96416" lon="0.42819">
        <ele>132</ele>
        <time>2014-06-23T10:43:19Z</time>
      </trkpt>
      <trkpt lat="43.96415" lon="0.42819">
        <ele>132</ele>
        <time>2014-06-23T10:43:22Z</time>
      </trkpt>
      <trkpt lat="43.96417" lon="0.42803">
        <ele>130</ele>
        <time>2014-06-23T10:43:46Z</time>
      </trkpt>
      <trkpt lat="43.96416" lon="0.42802">
        <ele>135</ele>
        <time>2014-06-23T10:43:47Z</time>
      </trkpt>
      <trkpt lat="43.96417" lon="0.42803">
        <ele>130</ele>
        <time>2014-06-23T10:43:52Z</time>
      </trkpt>
      <trkpt lat="43.96414" lon="0.42828">
        <ele>130</ele>
        <time>2014-06-23T10:44:21Z</time>
      </trkpt>
      <trkpt lat="43.96411" lon="0.42828">
        <ele>131</ele>
        <time>2014-06-23T10:44:30Z</time>
      </trkpt>
      <trkpt lat="43.96411" lon="0.42835">
        <ele>129</ele>
        <time>2014-06-23T10:44:53Z</time>
      </trkpt>
      <trkpt lat="43.96414" lon="0.42833">
        <ele>129</ele>
        <time>2014-06-23T10:45:12Z</time>
      </trkpt>
      <trkpt lat="43.96414" lon="0.42831">
        <ele>129</ele>
        <time>2014-06-23T10:45:56Z</time>
      </trkpt>
      <trkpt lat="43.96406" lon="0.42828">
        <ele>132</ele>
        <time>2014-06-23T10:46:26Z</time>
      </trkpt>
      <trkpt lat="43.96412" lon="0.42834">
        <ele>129</ele>
        <time>2014-06-23T10:47:07Z</time>
      </trkpt>
      <trkpt lat="43.96415" lon="0.42831">
        <ele>129</ele>
        <time>2014-06-23T10:47:37Z</time>
      </trkpt>
      <trkpt lat="43.96409" lon="0.42825">
        <ele>132</ele>
        <time>2014-06-23T10:47:59Z</time>
      </trkpt>
      <trkpt lat="43.96412" lon="0.42827">
        <ele>131</ele>
        <time>2014-06-23T10:48:23Z</time>
      </trkpt>
      <trkpt lat="43.96415" lon="0.42832">
        <ele>129</ele>
        <time>2014-06-23T10:48:51Z</time>
      </trkpt>
      <trkpt lat="43.96415" lon="0.42831">
        <ele>129</ele>
        <time>2014-06-23T10:49:09Z</time>
      </trkpt>
      <trkpt lat="43.96418" lon="0.42835">
        <ele>128</ele>
        <time>2014-06-23T10:49:32Z</time>
      </trkpt>
      <trkpt lat="43.96407" lon="0.42837">
        <ele>129</ele>
        <time>2014-06-23T10:49:57Z</time>
      </trkpt>
      <trkpt lat="43.96413" lon="0.42846">
        <ele>130</ele>
        <time>2014-06-23T10:50:24Z</time>
      </trkpt>
      <trkpt lat="43.9641" lon="0.42836">
        <ele>129</ele>
        <time>2014-06-23T10:51:25Z</time>
      </trkpt>
      <trkpt lat="43.96409" lon="0.42832">
        <ele>131</ele>
        <time>2014-06-23T10:52:08Z</time>
      </trkpt>
      <trkpt lat="43.96405" lon="0.42826">
        <ele>132</ele>
        <time>2014-06-23T10:52:37Z</time>
      </trkpt>
      <trkpt lat="43.96411" lon="0.42832">
        <ele>130</ele>
        <time>2014-06-23T10:53:10Z</time>
      </trkpt>
      <trkpt lat="43.96411" lon="0.42832">
        <ele>130</ele>
        <time>2014-06-23T10:54:05Z</time>
      </trkpt>
      <trkpt lat="43.96409" lon="0.42833">
        <ele>131</ele>
        <time>2014-06-23T10:54:27Z</time>
      </trkpt>
      <trkpt lat="43.96402" lon="0.42829">
        <ele>132</ele>
        <time>2014-06-23T10:55:06Z</time>
      </trkpt>
      <trkpt lat="43.96402" lon="0.42822">
        <ele>133</ele>
        <time>2014-06-23T10:55:30Z</time>
      </trkpt>
      <trkpt lat="43.96402" lon="0.42817">
        <ele>134</ele>
        <time>2014-06-23T10:55:43Z</time>
      </trkpt>
      <trkpt lat="43.96401" lon="0.42817">
        <ele>134</ele>
        <time>2014-06-23T10:55:44Z</time>
      </trkpt>
      <trkpt lat="43.96402" lon="0.42817">
        <ele>134</ele>
        <time>2014-06-23T10:55:46Z</time>
      </trkpt>
      <trkpt lat="43.96402" lon="0.42833">
        <ele>130</ele>
        <time>2014-06-23T10:56:03Z</time>
      </trkpt>
      <trkpt lat="43.96411" lon="0.42845">
        <ele>130</ele>
        <time>2014-06-23T10:56:44Z</time>
      </trkpt>
      <trkpt lat="43.9641" lon="0.42844">
        <ele>130</ele>
        <time>2014-06-23T10:56:53Z</time>
      </trkpt>
      <trkpt lat="43.96409" lon="0.42843">
        <ele>130</ele>
        <time>2014-06-23T10:56:55Z</time>
      </trkpt>
      <trkpt lat="43.9641" lon="0.42839">
        <ele>129</ele>
        <time>2014-06-23T10:57:29Z</time>
      </trkpt>
      <trkpt lat="43.96412" lon="0.42839">
        <ele>129</ele>
        <time>2014-06-23T10:58:19Z</time>
      </trkpt>
      <trkpt lat="43.96412" lon="0.42836">
        <ele>129</ele>
        <time>2014-06-23T10:58:52Z</time>
      </trkpt>
      <trkpt lat="43.96418" lon="0.42827">
        <ele>128</ele>
        <time>2014-06-23T10:59:17Z</time>
      </trkpt>
      <trkpt lat="43.96417" lon="0.42826">
        <ele>129</ele>
        <time>2014-06-23T10:59:24Z</time>
      </trkpt>
      <trkpt lat="43.96412" lon="0.42825">
        <ele>131</ele>
        <time>2014-06-23T10:59:27Z</time>
      </trkpt>
      <trkpt lat="43.96406" lon="0.42827">
        <ele>132</ele>
        <time>2014-06-23T10:59:45Z</time>
      </trkpt>
      <trkpt lat="43.9641" lon="0.42826">
        <ele>131</ele>
        <time>2014-06-23T11:00:12Z</time>
      </trkpt>
      <trkpt lat="43.96411" lon="0.42829">
        <ele>131</ele>
        <time>2014-06-23T11:01:07Z</time>
      </trkpt>
      <trkpt lat="43.964" lon="0.4283">
        <ele>133</ele>
        <time>2014-06-23T11:01:31Z</time>
      </trkpt>
      <trkpt lat="43.96402" lon="0.42828">
        <ele>133</ele>
        <time>2014-06-23T11:01:45Z</time>
      </trkpt>
      <trkpt lat="43.96411" lon="0.42825">
        <ele>131</ele>
        <time>2014-06-23T11:02:21Z</time>
      </trkpt>
      <trkpt lat="43.96407" lon="0.42824">
        <ele>132</ele>
        <time>2014-06-23T11:02:42Z</time>
      </trkpt>
      <trkpt lat="43.96406" lon="0.42825">
        <ele>132</ele>
        <time>2014-06-23T11:02:48Z</time>
      </trkpt>
      <trkpt lat="43.96406" lon="0.42826">
        <ele>132</ele>
        <time>2014-06-23T11:02:49Z</time>
      </trkpt>
      <trkpt lat="43.96407" lon="0.42827">
        <ele>132</ele>
        <time>2014-06-23T11:02:50Z</time>
      </trkpt>
      <trkpt lat="43.96413" lon="0.42828">
        <ele>130</ele>
        <time>2014-06-23T11:03:08Z</time>
      </trkpt>
      <trkpt lat="43.96416" lon="0.42826">
        <ele>131</ele>
        <time>2014-06-23T11:03:25Z</time>
      </trkpt>
      <trkpt lat="43.96415" lon="0.42836">
        <ele>129</ele>
        <time>2014-06-23T11:03:40Z</time>
      </trkpt>
      <trkpt lat="43.96416" lon="0.42839">
        <ele>129</ele>
        <time>2014-06-23T11:03:54Z</time>
      </trkpt>
      <trkpt lat="43.96415" lon="0.42839">
        <ele>129</ele>
        <time>2014-06-23T11:03:55Z</time>
      </trkpt>
      <trkpt lat="43.96415" lon="0.42838">
        <ele>129</ele>
        <time>2014-06-23T11:03:58Z</time>
      </trkpt>
      <trkpt lat="43.96414" lon="0.42837">
        <ele>129</ele>
        <time>2014-06-23T11:03:59Z</time>
      </trkpt>
      <trkpt lat="43.96407" lon="0.42829">
        <ele>131</ele>
        <time>2014-06-23T11:05:13Z</time>
      </trkpt>
      <trkpt lat="43.96407" lon="0.42829">
        <ele>131</ele>
        <time>2014-06-23T11:05:18Z</time>
      </trkpt>
      <trkpt lat="43.96407" lon="0.42829">
        <ele>131</ele>
        <time>2014-06-23T11:05:19Z</time>
      </trkpt>
      <trkpt lat="43.9641" lon="0.4283">
        <ele>131</ele>
        <time>2014-06-23T11:05:27Z</time>
      </trkpt>
      <trkpt lat="43.96411" lon="0.4283">
        <ele>130</ele>
        <time>2014-06-23T11:05:28Z</time>
      </trkpt>
      <trkpt lat="43.96411" lon="0.4283">
        <ele>130</ele>
        <time>2014-06-23T11:05:30Z</time>
      </trkpt>
      <trkpt lat="43.96412" lon="0.4283">
        <ele>130</ele>
        <time>2014-06-23T11:05:35Z</time>
      </trkpt>
      <trkpt lat="43.96418" lon="0.42837">
        <ele>128</ele>
        <time>2014-06-23T11:06:07Z</time>
      </trkpt>
      <trkpt lat="43.9642" lon="0.42837">
        <ele>128</ele>
        <time>2014-06-23T11:06:32Z</time>
      </trkpt>
      <trkpt lat="43.96419" lon="0.42837">
        <ele>128</ele>
        <time>2014-06-23T11:06:48Z</time>
      </trkpt>
      <trkpt lat="43.96419" lon="0.42837">
        <ele>128</ele>
        <time>2014-06-23T11:06:49Z</time>
      </trkpt>
      <trkpt lat="43.96419" lon="0.42837">
        <ele>128</ele>
        <time>2014-06-23T11:06:51Z</time>
      </trkpt>
      <trkpt lat="43.96418" lon="0.42836">
        <ele>128</ele>
        <time>2014-06-23T11:07:17Z</time>
      </trkpt>
      <trkpt lat="43.96418" lon="0.42839">
        <ele>128</ele>
        <time>2014-06-23T11:07:55Z</time>
      </trkpt>
      <trkpt lat="43.96417" lon="0.42838">
        <ele>128</ele>
        <time>2014-06-23T11:08:31Z</time>
      </trkpt>
      <trkpt lat="43.96416" lon="0.4284">
        <ele>129</ele>
        <time>2014-06-23T11:08:52Z</time>
      </trkpt>
      <trkpt lat="43.9641" lon="0.42835">
        <ele>129</ele>
        <time>2014-06-23T11:09:34Z</time>
      </trkpt>
      <trkpt lat="43.96407" lon="0.42834">
        <ele>129</ele>
        <time>2014-06-23T11:09:41Z</time>
      </trkpt>
      <trkpt lat="43.96406" lon="0.42833">
        <ele>131</ele>
        <time>2014-06-23T11:09:43Z</time>
      </trkpt>
      <trkpt lat="43.96406" lon="0.42832">
        <ele>131</ele>
        <time>2014-06-23T11:09:44Z</time>
      </trkpt>
      <trkpt lat="43.96408" lon="0.42817">
        <ele>133</ele>
        <time>2014-06-23T11:09:59Z</time>
      </trkpt>
      <trkpt lat="43.96412" lon="0.42807">
        <ele>134</ele>
        <time>2014-06-23T11:10:13Z</time>
      </trkpt>
      <trkpt lat="43.96417" lon="0.42796">
        <ele>130</ele>
        <time>2014-06-23T11:10:23Z</time>
      </trkpt>
      <trkpt lat="43.96423" lon="0.42783">
        <ele>131</ele>
        <time>2014-06-23T11:10:34Z</time>
      </trkpt>
      <trkpt lat="43.96424" lon="0.42782">
        <ele>131</ele>
        <time>2014-06-23T11:10:35Z</time>
      </trkpt>
      <trkpt lat="43.96429" lon="0.42765">
        <ele>132</ele>
        <time>2014-06-23T11:10:49Z</time>
      </trkpt>
      <trkpt lat="43.96434" lon="0.42757">
        <ele>132</ele>
        <time>2014-06-23T11:10:56Z</time>
      </trkpt>
      <trkpt lat="43.96442" lon="0.42739">
        <ele>134</ele>
        <time>2014-06-23T11:11:11Z</time>
      </trkpt>
      <trkpt lat="43.96443" lon="0.42735">
        <ele>134</ele>
        <time>2014-06-23T11:11:14Z</time>
      </trkpt>
      <trkpt lat="43.96451" lon="0.42716">
        <ele>134</ele>
        <time>2014-06-23T11:11:30Z</time>
      </trkpt>
      <trkpt lat="43.96455" lon="0.42705">
        <ele>134</ele>
        <time>2014-06-23T11:11:39Z</time>
      </trkpt>
      <trkpt lat="43.96461" lon="0.42679">
        <ele>134</ele>
        <time>2014-06-23T11:11:58Z</time>
      </trkpt>
      <trkpt lat="43.96463" lon="0.42671">
        <ele>134</ele>
        <time>2014-06-23T11:12:04Z</time>
      </trkpt>
      <trkpt lat="43.96465" lon="0.42662">
        <ele>137</ele>
        <time>2014-06-23T11:12:11Z</time>
      </trkpt>
      <trkpt lat="43.9647" lon="0.4264">
        <ele>137</ele>
        <time>2014-06-23T11:12:29Z</time>
      </trkpt>
      <trkpt lat="43.96473" lon="0.42621">
        <ele>138</ele>
        <time>2014-06-23T11:12:45Z</time>
      </trkpt>
      <trkpt lat="43.96474" lon="0.42615">
        <ele>138</ele>
        <time>2014-06-23T11:12:50Z</time>
      </trkpt>
      <trkpt lat="43.96475" lon="0.42605">
        <ele>138</ele>
        <time>2014-06-23T11:12:57Z</time>
      </trkpt>
      <trkpt lat="43.9648" lon="0.42577">
        <ele>140</ele>
        <time>2014-06-23T11:13:18Z</time>
      </trkpt>
      <trkpt lat="43.96485" lon="0.42553">
        <ele>140</ele>
        <time>2014-06-23T11:13:36Z</time>
      </trkpt>
      <trkpt lat="43.96486" lon="0.42537">
        <ele>141</ele>
        <time>2014-06-23T11:13:49Z</time>
      </trkpt>
      <trkpt lat="43.96483" lon="0.42516">
        <ele>141</ele>
        <time>2014-06-23T11:14:05Z</time>
      </trkpt>
      <trkpt lat="43.96483" lon="0.42515">
        <ele>141</ele>
        <time>2014-06-23T11:14:06Z</time>
      </trkpt>
      <trkpt lat="43.96479" lon="0.42489">
        <ele>141</ele>
        <time>2014-06-23T11:14:23Z</time>
      </trkpt>
      <trkpt lat="43.96476" lon="0.42469">
        <ele>140</ele>
        <time>2014-06-23T11:14:37Z</time>
      </trkpt>
      <trkpt lat="43.96471" lon="0.42448">
        <ele>140</ele>
        <time>2014-06-23T11:14:53Z</time>
      </trkpt>
      <trkpt lat="43.96469" lon="0.42439">
        <ele>140</ele>
        <time>2014-06-23T11:14:59Z</time>
      </trkpt>
      <trkpt lat="43.96465" lon="0.42423">
        <ele>140</ele>
        <time>2014-06-23T11:15:09Z</time>
      </trkpt>
      <trkpt lat="43.9646" lon="0.42407">
        <ele>137</ele>
        <time>2014-06-23T11:15:21Z</time>
      </trkpt>
      <trkpt lat="43.9646" lon="0.42403">
        <ele>137</ele>
        <time>2014-06-23T11:15:24Z</time>
      </trkpt>
      <trkpt lat="43.96457" lon="0.42388">
        <ele>137</ele>
        <time>2014-06-23T11:15:36Z</time>
      </trkpt>
      <trkpt lat="43.96453" lon="0.42368">
        <ele>137</ele>
        <time>2014-06-23T11:15:50Z</time>
      </trkpt>
      <trkpt lat="43.96447" lon="0.42347">
        <ele>137</ele>
        <time>2014-06-23T11:16:04Z</time>
      </trkpt>
      <trkpt lat="43.9644" lon="0.42324">
        <ele>135</ele>
        <time>2014-06-23T11:16:20Z</time>
      </trkpt>
      <trkpt lat="43.96434" lon="0.42301">
        <ele>134</ele>
        <time>2014-06-23T11:16:36Z</time>
      </trkpt>
      <trkpt lat="43.96429" lon="0.42278">
        <ele>134</ele>
        <time>2014-06-23T11:16:51Z</time>
      </trkpt>
      <trkpt lat="43.96423" lon="0.42254">
        <ele>134</ele>
        <time>2014-06-23T11:17:08Z</time>
      </trkpt>
      <trkpt lat="43.96422" lon="0.42249">
        <ele>134</ele>
        <time>2014-06-23T11:17:11Z</time>
      </trkpt>
      <trkpt lat="43.9642" lon="0.42238">
        <ele>134</ele>
        <time>2014-06-23T11:17:24Z</time>
      </trkpt>
      <trkpt lat="43.9641" lon="0.42214">
        <ele>136</ele>
        <time>2014-06-23T11:17:42Z</time>
      </trkpt>
      <trkpt lat="43.96402" lon="0.42196">
        <ele>135</ele>
        <time>2014-06-23T11:17:57Z</time>
      </trkpt>
      <trkpt lat="43.96395" lon="0.42181">
        <ele>135</ele>
        <time>2014-06-23T11:18:08Z</time>
      </trkpt>
      <trkpt lat="43.96394" lon="0.42178">
        <ele>135</ele>
        <time>2014-06-23T11:18:10Z</time>
      </trkpt>
      <trkpt lat="43.96385" lon="0.42157">
        <ele>134</ele>
        <time>2014-06-23T11:18:25Z</time>
      </trkpt>
      <trkpt lat="43.96377" lon="0.4214">
        <ele>134</ele>
        <time>2014-06-23T11:18:39Z</time>
      </trkpt>
      <trkpt lat="43.96372" lon="0.42124">
        <ele>135</ele>
        <time>2014-06-23T11:18:52Z</time>
      </trkpt>
      <trkpt lat="43.96369" lon="0.4212">
        <ele>135</ele>
        <time>2014-06-23T11:18:56Z</time>
      </trkpt>
      <trkpt lat="43.96367" lon="0.42108">
        <ele>135</ele>
        <time>2014-06-23T11:19:04Z</time>
      </trkpt>
      <trkpt lat="43.96359" lon="0.4209">
        <ele>135</ele>
        <time>2014-06-23T11:19:19Z</time>
      </trkpt>
      <trkpt lat="43.96355" lon="0.42066">
        <ele>136</ele>
        <time>2014-06-23T11:19:37Z</time>
      </trkpt>
      <trkpt lat="43.96356" lon="0.42062">
        <ele>136</ele>
        <time>2014-06-23T11:19:39Z</time>
      </trkpt>
      <trkpt lat="43.96357" lon="0.42043">
        <ele>136</ele>
        <time>2014-06-23T11:19:48Z</time>
      </trkpt>
      <trkpt lat="43.96356" lon="0.4203">
        <ele>136</ele>
        <time>2014-06-23T11:19:57Z</time>
      </trkpt>
      <trkpt lat="43.96352" lon="0.42026">
        <ele>136</ele>
        <time>2014-06-23T11:20:16Z</time>
      </trkpt>
      <trkpt lat="43.96353" lon="0.4203">
        <ele>136</ele>
        <time>2014-06-23T11:20:19Z</time>
      </trkpt>
      <trkpt lat="43.96355" lon="0.42013">
        <ele>137</ele>
        <time>2014-06-23T11:20:34Z</time>
      </trkpt>
      <trkpt lat="43.96352" lon="0.42006">
        <ele>137</ele>
        <time>2014-06-23T11:20:41Z</time>
      </trkpt>
      <trkpt lat="43.96351" lon="0.41995">
        <ele>139</ele>
        <time>2014-06-23T11:20:54Z</time>
      </trkpt>
      <trkpt lat="43.96346" lon="0.41999">
        <ele>139</ele>
        <time>2014-06-23T11:21:13Z</time>
      </trkpt>
      <trkpt lat="43.96345" lon="0.41987">
        <ele>139</ele>
        <time>2014-06-23T11:21:30Z</time>
      </trkpt>
      <trkpt lat="43.96343" lon="0.41982">
        <ele>139</ele>
        <time>2014-06-23T11:21:33Z</time>
      </trkpt>
      <trkpt lat="43.9633" lon="0.41971">
        <ele>138</ele>
        <time>2014-06-23T11:21:59Z</time>
      </trkpt>
      <trkpt lat="43.96328" lon="0.41966">
        <ele>138</ele>
        <time>2014-06-23T11:22:28Z</time>
      </trkpt>
      <trkpt lat="43.96328" lon="0.41952">
        <ele>139</ele>
        <time>2014-06-23T11:22:37Z</time>
      </trkpt>
      <trkpt lat="43.96329" lon="0.41937">
        <ele>139</ele>
        <time>2014-06-23T11:22:47Z</time>
      </trkpt>
      <trkpt lat="43.96328" lon="0.41916">
        <ele>142</ele>
        <time>2014-06-23T11:23:04Z</time>
      </trkpt>
      <trkpt lat="43.96327" lon="0.41913">
        <ele>142</ele>
        <time>2014-06-23T11:23:07Z</time>
      </trkpt>
      <trkpt lat="43.96328" lon="0.41897">
        <ele>141</ele>
        <time>2014-06-23T11:23:17Z</time>
      </trkpt>
      <trkpt lat="43.9633" lon="0.41888">
        <ele>142</ele>
        <time>2014-06-23T11:23:23Z</time>
      </trkpt>
      <trkpt lat="43.96332" lon="0.41872">
        <ele>142</ele>
        <time>2014-06-23T11:23:36Z</time>
      </trkpt>
      <trkpt lat="43.96328" lon="0.41853">
        <ele>144</ele>
        <time>2014-06-23T11:23:53Z</time>
      </trkpt>
      <trkpt lat="43.96329" lon="0.41829">
        <ele>146</ele>
        <time>2014-06-23T11:24:08Z</time>
      </trkpt>
      <trkpt lat="43.96327" lon="0.41811">
        <ele>145</ele>
        <time>2014-06-23T11:24:19Z</time>
      </trkpt>
      <trkpt lat="43.96326" lon="0.41796">
        <ele>144</ele>
        <time>2014-06-23T11:24:31Z</time>
      </trkpt>
      <trkpt lat="43.96325" lon="0.41771">
        <ele>144</ele>
        <time>2014-06-23T11:24:46Z</time>
      </trkpt>
      <trkpt lat="43.96323" lon="0.41749">
        <ele>144</ele>
        <time>2014-06-23T11:25:00Z</time>
      </trkpt>
      <trkpt lat="43.96324" lon="0.41733">
        <ele>145</ele>
        <time>2014-06-23T11:25:11Z</time>
      </trkpt>
      <trkpt lat="43.96324" lon="0.41731">
        <ele>145</ele>
        <time>2014-06-23T11:25:12Z</time>
      </trkpt>
      <trkpt lat="43.96323" lon="0.41713">
        <ele>145</ele>
        <time>2014-06-23T11:25:27Z</time>
      </trkpt>
      <trkpt lat="43.96322" lon="0.41696">
        <ele>146</ele>
        <time>2014-06-23T11:25:39Z</time>
      </trkpt>
      <trkpt lat="43.96319" lon="0.41672">
        <ele>146</ele>
        <time>2014-06-23T11:26:10Z</time>
      </trkpt>
      <trkpt lat="43.96318" lon="0.41662">
        <ele>147</ele>
        <time>2014-06-23T11:26:24Z</time>
      </trkpt>
      <trkpt lat="43.9632" lon="0.41653">
        <ele>147</ele>
        <time>2014-06-23T11:26:37Z</time>
      </trkpt>
      <trkpt lat="43.96321" lon="0.4165">
        <ele>147</ele>
        <time>2014-06-23T11:26:43Z</time>
      </trkpt>
      <trkpt lat="43.96321" lon="0.41639">
        <ele>147</ele>
        <time>2014-06-23T11:26:55Z</time>
      </trkpt>
      <trkpt lat="43.96321" lon="0.41625">
        <ele>147</ele>
        <time>2014-06-23T11:27:13Z</time>
      </trkpt>
      <trkpt lat="43.96324" lon="0.4161">
        <ele>147</ele>
        <time>2014-06-23T11:27:28Z</time>
      </trkpt>
      <trkpt lat="43.96328" lon="0.41594">
        <ele>148</ele>
        <time>2014-06-23T11:27:44Z</time>
      </trkpt>
      <trkpt lat="43.9633" lon="0.41581">
        <ele>149</ele>
        <time>2014-06-23T11:27:59Z</time>
      </trkpt>
      <trkpt lat="43.96337" lon="0.41571">
        <ele>151</ele>
        <time>2014-06-23T11:28:13Z</time>
      </trkpt>
      <trkpt lat="43.9634" lon="0.41562">
        <ele>151</ele>
        <time>2014-06-23T11:28:25Z</time>
      </trkpt>
      <trkpt lat="43.96342" lon="0.4154">
        <ele>151</ele>
        <time>2014-06-23T11:28:39Z</time>
      </trkpt>
      <trkpt lat="43.96342" lon="0.41537">
        <ele>151</ele>
        <time>2014-06-23T11:28:43Z</time>
      </trkpt>
      <trkpt lat="43.96344" lon="0.41508">
        <ele>150</ele>
        <time>2014-06-23T11:29:13Z</time>
      </trkpt>
      <trkpt lat="43.96365" lon="0.41476">
        <ele>152</ele>
        <time>2014-06-23T11:29:55Z</time>
      </trkpt>
      <trkpt lat="43.9637" lon="0.4147">
        <ele>152</ele>
        <time>2014-06-23T11:30:03Z</time>
      </trkpt>
      <trkpt lat="43.96373" lon="0.41458">
        <ele>152</ele>
        <time>2014-06-23T11:30:18Z</time>
      </trkpt>
      <trkpt lat="43.96375" lon="0.41446">
        <ele>152</ele>
        <time>2014-06-23T11:30:30Z</time>
      </trkpt>
      <trkpt lat="43.96374" lon="0.4143">
        <ele>152</ele>
        <time>2014-06-23T11:30:46Z</time>
      </trkpt>
      <trkpt lat="43.96372" lon="0.41417">
        <ele>152</ele>
        <time>2014-06-23T11:31:02Z</time>
      </trkpt>
      <trkpt lat="43.9637" lon="0.41407">
        <ele>152</ele>
        <time>2014-06-23T11:31:18Z</time>
      </trkpt>
      <trkpt lat="43.96368" lon="0.41401">
        <ele>152</ele>
        <time>2014-06-23T11:31:25Z</time>
      </trkpt>
      <trkpt lat="43.96362" lon="0.41386">
        <ele>151</ele>
        <time>2014-06-23T11:31:41Z</time>
      </trkpt>
      <trkpt lat="43.9635" lon="0.41365">
        <ele>152</ele>
        <time>2014-06-23T11:32:01Z</time>
      </trkpt>
      <trkpt lat="43.96347" lon="0.41353">
        <ele>152</ele>
        <time>2014-06-23T11:32:14Z</time>
      </trkpt>
      <trkpt lat="43.96347" lon="0.41353">
        <ele>152</ele>
        <time>2014-06-23T11:32:17Z</time>
      </trkpt>
      <trkpt lat="43.96345" lon="0.41345">
        <ele>152</ele>
        <time>2014-06-23T11:32:30Z</time>
      </trkpt>
      <trkpt lat="43.96346" lon="0.4134">
        <ele>152</ele>
        <time>2014-06-23T11:32:45Z</time>
      </trkpt>
      <trkpt lat="43.96346" lon="0.41331">
        <ele>153</ele>
        <time>2014-06-23T11:33:03Z</time>
      </trkpt>
      <trkpt lat="43.96346" lon="0.41323">
        <ele>154</ele>
        <time>2014-06-23T11:33:11Z</time>
      </trkpt>
      <trkpt lat="43.96344" lon="0.41311">
        <ele>154</ele>
        <time>2014-06-23T11:33:29Z</time>
      </trkpt>
      <trkpt lat="43.9634" lon="0.41296">
        <ele>155</ele>
        <time>2014-06-23T11:33:49Z</time>
      </trkpt>
      <trkpt lat="43.96338" lon="0.41286">
        <ele>156</ele>
        <time>2014-06-23T11:34:01Z</time>
      </trkpt>
      <trkpt lat="43.96339" lon="0.41273">
        <ele>157</ele>
        <time>2014-06-23T11:34:19Z</time>
      </trkpt>
      <trkpt lat="43.96335" lon="0.41261">
        <ele>158</ele>
        <time>2014-06-23T11:34:35Z</time>
      </trkpt>
      <trkpt lat="43.96332" lon="0.41244">
        <ele>159</ele>
        <time>2014-06-23T11:34:54Z</time>
      </trkpt>
      <trkpt lat="43.96331" lon="0.41242">
        <ele>159</ele>
        <time>2014-06-23T11:34:58Z</time>
      </trkpt>
      <trkpt lat="43.96329" lon="0.41239">
        <ele>159</ele>
        <time>2014-06-23T11:35:03Z</time>
      </trkpt>
      <trkpt lat="43.96328" lon="0.41234">
        <ele>160</ele>
        <time>2014-06-23T11:35:10Z</time>
      </trkpt>
      <trkpt lat="43.96328" lon="0.41229">
        <ele>160</ele>
        <time>2014-06-23T11:35:14Z</time>
      </trkpt>
      <trkpt lat="43.96327" lon="0.41213">
        <ele>160</ele>
        <time>2014-06-23T11:35:30Z</time>
      </trkpt>
      <trkpt lat="43.96325" lon="0.41203">
        <ele>161</ele>
        <time>2014-06-23T11:35:43Z</time>
      </trkpt>
      <trkpt lat="43.9632" lon="0.41191">
        <ele>161</ele>
        <time>2014-06-23T11:35:59Z</time>
      </trkpt>
      <trkpt lat="43.96317" lon="0.41183">
        <ele>162</ele>
        <time>2014-06-23T11:36:12Z</time>
      </trkpt>
      <trkpt lat="43.96317" lon="0.41178">
        <ele>162</ele>
        <time>2014-06-23T11:36:17Z</time>
      </trkpt>
      <trkpt lat="43.96314" lon="0.41168">
        <ele>162</ele>
        <time>2014-06-23T11:36:29Z</time>
      </trkpt>
      <trkpt lat="43.96312" lon="0.41155">
        <ele>165</ele>
        <time>2014-06-23T11:36:43Z</time>
      </trkpt>
      <trkpt lat="43.96312" lon="0.41148">
        <ele>166</ele>
        <time>2014-06-23T11:36:52Z</time>
      </trkpt>
      <trkpt lat="43.96311" lon="0.41141">
        <ele>166</ele>
        <time>2014-06-23T11:36:59Z</time>
      </trkpt>
      <trkpt lat="43.96311" lon="0.4114">
        <ele>166</ele>
        <time>2014-06-23T11:37:00Z</time>
      </trkpt>
      <trkpt lat="43.9631" lon="0.4113">
        <ele>166</ele>
        <time>2014-06-23T11:37:10Z</time>
      </trkpt>
      <trkpt lat="43.96311" lon="0.41111">
        <ele>167</ele>
        <time>2014-06-23T11:37:30Z</time>
      </trkpt>
      <trkpt lat="43.96309" lon="0.41094">
        <ele>168</ele>
        <time>2014-06-23T11:37:47Z</time>
      </trkpt>
      <trkpt lat="43.96305" lon="0.4108">
        <ele>171</ele>
        <time>2014-06-23T11:38:02Z</time>
      </trkpt>
      <trkpt lat="43.96302" lon="0.41063">
        <ele>171</ele>
        <time>2014-06-23T11:38:22Z</time>
      </trkpt>
      <trkpt lat="43.96302" lon="0.41057">
        <ele>171</ele>
        <time>2014-06-23T11:38:29Z</time>
      </trkpt>
      <trkpt lat="43.96301" lon="0.41055">
        <ele>171</ele>
        <time>2014-06-23T11:38:31Z</time>
      </trkpt>
      <trkpt lat="43.96294" lon="0.41036">
        <ele>172</ele>
        <time>2014-06-23T11:38:51Z</time>
      </trkpt>
      <trkpt lat="43.96293" lon="0.41033">
        <ele>172</ele>
        <time>2014-06-23T11:38:55Z</time>
      </trkpt>
      <trkpt lat="43.96292" lon="0.41031">
        <ele>172</ele>
        <time>2014-06-23T11:38:57Z</time>
      </trkpt>
      <trkpt lat="43.9629" lon="0.41019">
        <ele>172</ele>
        <time>2014-06-23T11:39:15Z</time>
      </trkpt>
      <trkpt lat="43.96286" lon="0.41005">
        <ele>173</ele>
        <time>2014-06-23T11:39:33Z</time>
      </trkpt>
      <trkpt lat="43.96282" lon="0.40991">
        <ele>175</ele>
        <time>2014-06-23T11:39:48Z</time>
      </trkpt>
      <trkpt lat="43.96277" lon="0.40971">
        <ele>175</ele>
        <time>2014-06-23T11:40:08Z</time>
      </trkpt>
      <trkpt lat="43.96272" lon="0.40948">
        <ele>175</ele>
        <time>2014-06-23T11:40:29Z</time>
      </trkpt>
      <trkpt lat="43.96268" lon="0.40938">
        <ele>175</ele>
        <time>2014-06-23T11:40:40Z</time>
      </trkpt>
      <trkpt lat="43.96264" lon="0.4092">
        <ele>176</ele>
        <time>2014-06-23T11:40:59Z</time>
      </trkpt>
      <trkpt lat="43.96261" lon="0.40911">
        <ele>177</ele>
        <time>2014-06-23T11:41:07Z</time>
      </trkpt>
      <trkpt lat="43.96255" lon="0.40891">
        <ele>176</ele>
        <time>2014-06-23T11:41:27Z</time>
      </trkpt>
      <trkpt lat="43.96254" lon="0.40878">
        <ele>176</ele>
        <time>2014-06-23T11:41:46Z</time>
      </trkpt>
      <trkpt lat="43.9625" lon="0.40873">
        <ele>177</ele>
        <time>2014-06-23T11:41:59Z</time>
      </trkpt>
      <trkpt lat="43.9625" lon="0.40859">
        <ele>177</ele>
        <time>2014-06-23T11:42:16Z</time>
      </trkpt>
      <trkpt lat="43.96248" lon="0.40838">
        <ele>178</ele>
        <time>2014-06-23T11:42:35Z</time>
      </trkpt>
      <trkpt lat="43.96245" lon="0.40827">
        <ele>178</ele>
        <time>2014-06-23T11:42:49Z</time>
      </trkpt>
      <trkpt lat="43.9624" lon="0.40813">
        <ele>177</ele>
        <time>2014-06-23T11:43:06Z</time>
      </trkpt>
      <trkpt lat="43.96238" lon="0.408">
        <ele>177</ele>
        <time>2014-06-23T11:43:24Z</time>
      </trkpt>
      <trkpt lat="43.9624" lon="0.40789">
        <ele>177</ele>
        <time>2014-06-23T11:43:41Z</time>
      </trkpt>
      <trkpt lat="43.96239" lon="0.40788">
        <ele>177</ele>
        <time>2014-06-23T11:43:44Z</time>
      </trkpt>
      <trkpt lat="43.96239" lon="0.40788">
        <ele>177</ele>
        <time>2014-06-23T11:43:45Z</time>
      </trkpt>
      <trkpt lat="43.96234" lon="0.40793">
        <ele>177</ele>
        <time>2014-06-23T11:44:03Z</time>
      </trkpt>
      <trkpt lat="43.96236" lon="0.40788">
        <ele>177</ele>
        <time>2014-06-23T11:44:16Z</time>
      </trkpt>
      <trkpt lat="43.96238" lon="0.40783">
        <ele>177</ele>
        <time>2014-06-23T11:44:35Z</time>
      </trkpt>
      <trkpt lat="43.96239" lon="0.40782">
        <ele>177</ele>
        <time>2014-06-23T11:44:51Z</time>
      </trkpt>
      <trkpt lat="43.96242" lon="0.40776">
        <ele>177</ele>
        <time>2014-06-23T11:45:09Z</time>
      </trkpt>
      <trkpt lat="43.96244" lon="0.40774">
        <ele>177</ele>
        <time>2014-06-23T11:45:28Z</time>
      </trkpt>
      <trkpt lat="43.96241" lon="0.40782">
        <ele>177</ele>
        <time>2014-06-23T11:45:51Z</time>
      </trkpt>
      <trkpt lat="43.96239" lon="0.40793">
        <ele>177</ele>
        <time>2014-06-23T11:46:10Z</time>
      </trkpt>
      <trkpt lat="43.96236" lon="0.40795">
        <ele>177</ele>
        <time>2014-06-23T11:46:32Z</time>
      </trkpt>
      <trkpt lat="43.96239" lon="0.40785">
        <ele>177</ele>
        <time>2014-06-23T11:46:51Z</time>
      </trkpt>
      <trkpt lat="43.9624" lon="0.40783">
        <ele>177</ele>
        <time>2014-06-23T11:47:07Z</time>
      </trkpt>
      <trkpt lat="43.9624" lon="0.40777">
        <ele>177</ele>
        <time>2014-06-23T11:47:24Z</time>
      </trkpt>
      <trkpt lat="43.96236" lon="0.40788">
        <ele>177</ele>
        <time>2014-06-23T11:47:50Z</time>
      </trkpt>
      <trkpt lat="43.96236" lon="0.40788">
        <ele>177</ele>
        <time>2014-06-23T11:48:07Z</time>
      </trkpt>
      <trkpt lat="43.96236" lon="0.40789">
        <ele>177</ele>
        <time>2014-06-23T11:48:33Z</time>
      </trkpt>
      <trkpt lat="43.96236" lon="0.4079">
        <ele>177</ele>
        <time>2014-06-23T11:48:36Z</time>
      </trkpt>
      <trkpt lat="43.96236" lon="0.4079">
        <ele>177</ele>
        <time>2014-06-23T11:48:39Z</time>
      </trkpt>
      <trkpt lat="43.96236" lon="0.40785">
        <ele>177</ele>
        <time>2014-06-23T11:49:05Z</time>
      </trkpt>
      <trkpt lat="43.96237" lon="0.40786">
        <ele>177</ele>
        <time>2014-06-23T11:49:31Z</time>
      </trkpt>
      <trkpt lat="43.96238" lon="0.40783">
        <ele>177</ele>
        <time>2014-06-23T11:49:56Z</time>
      </trkpt>
      <trkpt lat="43.96238" lon="0.40786">
        <ele>177</ele>
        <time>2014-06-23T11:50:13Z</time>
      </trkpt>
      <trkpt lat="43.96238" lon="0.40786">
        <ele>177</ele>
        <time>2014-06-23T11:50:14Z</time>
      </trkpt>
      <trkpt lat="43.96235" lon="0.40786">
        <ele>177</ele>
        <time>2014-06-23T11:50:30Z</time>
      </trkpt>
      <trkpt lat="43.96229" lon="0.4078">
        <ele>177</ele>
        <time>2014-06-23T11:50:46Z</time>
      </trkpt>
      <trkpt lat="43.96227" lon="0.40767">
        <ele>177</ele>
        <time>2014-06-23T11:51:03Z</time>
      </trkpt>
      <trkpt lat="43.96224" lon="0.40746">
        <ele>176</ele>
        <time>2014-06-23T11:51:24Z</time>
      </trkpt>
      <trkpt lat="43.96221" lon="0.40727">
        <ele>176</ele>
        <time>2014-06-23T11:51:42Z</time>
      </trkpt>
      <trkpt lat="43.96217" lon="0.40708">
        <ele>175</ele>
        <time>2014-06-23T11:51:57Z</time>
      </trkpt>
      <trkpt lat="43.96214" lon="0.40687">
        <ele>175</ele>
        <time>2014-06-23T11:52:13Z</time>
      </trkpt>
      <trkpt lat="43.96211" lon="0.40668">
        <ele>174</ele>
        <time>2014-06-23T11:52:29Z</time>
      </trkpt>
      <trkpt lat="43.96209" lon="0.40647">
        <ele>172</ele>
        <time>2014-06-23T11:52:45Z</time>
      </trkpt>
      <trkpt lat="43.96205" lon="0.40628">
        <ele>171</ele>
        <time>2014-06-23T11:52:59Z</time>
      </trkpt>
      <trkpt lat="43.96199" lon="0.40614">
        <ele>170</ele>
        <time>2014-06-23T11:53:11Z</time>
      </trkpt>
      <trkpt lat="43.96189" lon="0.40593">
        <ele>169</ele>
        <time>2014-06-23T11:53:27Z</time>
      </trkpt>
      <trkpt lat="43.96186" lon="0.40574">
        <ele>167</ele>
        <time>2014-06-23T11:53:41Z</time>
      </trkpt>
      <trkpt lat="43.96176" lon="0.40552">
        <ele>166</ele>
        <time>2014-06-23T11:53:58Z</time>
      </trkpt>
      <trkpt lat="43.96171" lon="0.40535">
        <ele>166</ele>
        <time>2014-06-23T11:54:12Z</time>
      </trkpt>
      <trkpt lat="43.96165" lon="0.40513">
        <ele>160</ele>
        <time>2014-06-23T11:54:27Z</time>
      </trkpt>
      <trkpt lat="43.96163" lon="0.40481">
        <ele>158</ele>
        <time>2014-06-23T11:54:47Z</time>
      </trkpt>
      <trkpt lat="43.96159" lon="0.40454">
        <ele>156</ele>
        <time>2014-06-23T11:55:06Z</time>
      </trkpt>
      <trkpt lat="43.96155" lon="0.40431">
        <ele>156</ele>
        <time>2014-06-23T11:55:24Z</time>
      </trkpt>
      <trkpt lat="43.9615" lon="0.40406">
        <ele>155</ele>
        <time>2014-06-23T11:55:42Z</time>
      </trkpt>
      <trkpt lat="43.96146" lon="0.40385">
        <ele>154</ele>
        <time>2014-06-23T11:55:58Z</time>
      </trkpt>
      <trkpt lat="43.96143" lon="0.40362">
        <ele>153</ele>
        <time>2014-06-23T11:56:15Z</time>
      </trkpt>
      <trkpt lat="43.96139" lon="0.40338">
        <ele>153</ele>
        <time>2014-06-23T11:56:30Z</time>
      </trkpt>
      <trkpt lat="43.96138" lon="0.40333">
        <ele>153</ele>
        <time>2014-06-23T11:56:33Z</time>
      </trkpt>
      <trkpt lat="43.96132" lon="0.40314">
        <ele>153</ele>
        <time>2014-06-23T11:56:47Z</time>
      </trkpt>
      <trkpt lat="43.96126" lon="0.40298">
        <ele>152</ele>
        <time>2014-06-23T11:57:00Z</time>
      </trkpt>
      <trkpt lat="43.96126" lon="0.40293">
        <ele>152</ele>
        <time>2014-06-23T11:57:03Z</time>
      </trkpt>
      <trkpt lat="43.96123" lon="0.40282">
        <ele>152</ele>
        <time>2014-06-23T11:57:10Z</time>
      </trkpt>
      <trkpt lat="43.96115" lon="0.40256">
        <ele>151</ele>
        <time>2014-06-23T11:57:29Z</time>
      </trkpt>
      <trkpt lat="43.9611" lon="0.4023">
        <ele>150</ele>
        <time>2014-06-23T11:57:47Z</time>
      </trkpt>
      <trkpt lat="43.96108" lon="0.40222">
        <ele>150</ele>
        <time>2014-06-23T11:57:53Z</time>
      </trkpt>
      <trkpt lat="43.96103" lon="0.402">
        <ele>150</ele>
        <time>2014-06-23T11:58:10Z</time>
      </trkpt>
      <trkpt lat="43.96094" lon="0.40176">
        <ele>149</ele>
        <time>2014-06-23T11:58:28Z</time>
      </trkpt>
      <trkpt lat="43.96093" lon="0.40169">
        <ele>149</ele>
        <time>2014-06-23T11:58:43Z</time>
      </trkpt>
      <trkpt lat="43.96093" lon="0.40168">
        <ele>149</ele>
        <time>2014-06-23T11:58:47Z</time>
      </trkpt>
      <trkpt lat="43.9609" lon="0.40154">
        <ele>149</ele>
        <time>2014-06-23T11:58:56Z</time>
      </trkpt>
      <trkpt lat="43.9609" lon="0.40152">
        <ele>149</ele>
        <time>2014-06-23T11:58:58Z</time>
      </trkpt>
      <trkpt lat="43.96085" lon="0.40131">
        <ele>149</ele>
        <time>2014-06-23T11:59:14Z</time>
      </trkpt>
      <trkpt lat="43.9608" lon="0.401">
        <ele>145</ele>
        <time>2014-06-23T11:59:36Z</time>
      </trkpt>
      <trkpt lat="43.9608" lon="0.40097">
        <ele>145</ele>
        <time>2014-06-23T11:59:38Z</time>
      </trkpt>
      <trkpt lat="43.96075" lon="0.4007">
        <ele>145</ele>
        <time>2014-06-23T11:59:57Z</time>
      </trkpt>
      <trkpt lat="43.9607" lon="0.40044">
        <ele>144</ele>
        <time>2014-06-23T12:00:16Z</time>
      </trkpt>
      <trkpt lat="43.96068" lon="0.4004">
        <ele>144</ele>
        <time>2014-06-23T12:00:20Z</time>
      </trkpt>
      <trkpt lat="43.96065" lon="0.40016">
        <ele>144</ele>
        <time>2014-06-23T12:00:38Z</time>
      </trkpt>
      <trkpt lat="43.96063" lon="0.39994">
        <ele>144</ele>
        <time>2014-06-23T12:00:54Z</time>
      </trkpt>
      <trkpt lat="43.96062" lon="0.39992">
        <ele>144</ele>
        <time>2014-06-23T12:00:55Z</time>
      </trkpt>
      <trkpt lat="43.96059" lon="0.39969">
        <ele>143</ele>
        <time>2014-06-23T12:01:11Z</time>
      </trkpt>
      <trkpt lat="43.96059" lon="0.39966">
        <ele>143</ele>
        <time>2014-06-23T12:01:13Z</time>
      </trkpt>
      <trkpt lat="43.9606" lon="0.39961">
        <ele>143</ele>
        <time>2014-06-23T12:01:16Z</time>
      </trkpt>
      <trkpt lat="43.9606" lon="0.39958">
        <ele>143</ele>
        <time>2014-06-23T12:01:18Z</time>
      </trkpt>
      <trkpt lat="43.96055" lon="0.39937">
        <ele>143</ele>
        <time>2014-06-23T12:01:34Z</time>
      </trkpt>
      <trkpt lat="43.9605" lon="0.39917">
        <ele>143</ele>
        <time>2014-06-23T12:01:49Z</time>
      </trkpt>
      <trkpt lat="43.96043" lon="0.39887">
        <ele>141</ele>
        <time>2014-06-23T12:02:10Z</time>
      </trkpt>
      <trkpt lat="43.96036" lon="0.39861">
        <ele>141</ele>
        <time>2014-06-23T12:02:29Z</time>
      </trkpt>
      <trkpt lat="43.96036" lon="0.39859">
        <ele>141</ele>
        <time>2014-06-23T12:02:30Z</time>
      </trkpt>
      <trkpt lat="43.96028" lon="0.39831">
        <ele>140</ele>
        <time>2014-06-23T12:02:50Z</time>
      </trkpt>
      <trkpt lat="43.96027" lon="0.39828">
        <ele>141</ele>
        <time>2014-06-23T12:02:52Z</time>
      </trkpt>
      <trkpt lat="43.96021" lon="0.39797">
        <ele>140</ele>
        <time>2014-06-23T12:03:13Z</time>
      </trkpt>
      <trkpt lat="43.96021" lon="0.39794">
        <ele>140</ele>
        <time>2014-06-23T12:03:15Z</time>
      </trkpt>
      <trkpt lat="43.96015" lon="0.39763">
        <ele>141</ele>
        <time>2014-06-23T12:03:37Z</time>
      </trkpt>
      <trkpt lat="43.96011" lon="0.39748">
        <ele>141</ele>
        <time>2014-06-23T12:03:48Z</time>
      </trkpt>
      <trkpt lat="43.9601" lon="0.3972">
        <ele>140</ele>
        <time>2014-06-23T12:04:06Z</time>
      </trkpt>
      <trkpt lat="43.96007" lon="0.39692">
        <ele>139</ele>
        <time>2014-06-23T12:04:25Z</time>
      </trkpt>
      <trkpt lat="43.96004" lon="0.39666">
        <ele>140</ele>
        <time>2014-06-23T12:04:44Z</time>
      </trkpt>
      <trkpt lat="43.96003" lon="0.39638">
        <ele>139</ele>
        <time>2014-06-23T12:05:04Z</time>
      </trkpt>
      <trkpt lat="43.96003" lon="0.39632">
        <ele>139</ele>
        <time>2014-06-23T12:05:08Z</time>
      </trkpt>
      <trkpt lat="43.96001" lon="0.39624">
        <ele>139</ele>
        <time>2014-06-23T12:05:13Z</time>
      </trkpt>
      <trkpt lat="43.96001" lon="0.39621">
        <ele>139</ele>
        <time>2014-06-23T12:05:15Z</time>
      </trkpt>
      <trkpt lat="43.96" lon="0.39618">
        <ele>139</ele>
        <time>2014-06-23T12:05:17Z</time>
      </trkpt>
      <trkpt lat="43.96" lon="0.3959">
        <ele>141</ele>
        <time>2014-06-23T12:05:38Z</time>
      </trkpt>
      <trkpt lat="43.96" lon="0.39589">
        <ele>141</ele>
        <time>2014-06-23T12:05:39Z</time>
      </trkpt>
      <trkpt lat="43.96" lon="0.39581">
        <ele>141</ele>
        <time>2014-06-23T12:05:44Z</time>
      </trkpt>
      <trkpt lat="43.95997" lon="0.39554">
        <ele>141</ele>
        <time>2014-06-23T12:06:04Z</time>
      </trkpt>
      <trkpt lat="43.9599" lon="0.39532">
        <ele>141</ele>
        <time>2014-06-23T12:06:18Z</time>
      </trkpt>
      <trkpt lat="43.95987" lon="0.3951">
        <ele>141</ele>
        <time>2014-06-23T12:06:33Z</time>
      </trkpt>
      <trkpt lat="43.95987" lon="0.39509">
        <ele>141</ele>
        <time>2014-06-23T12:06:34Z</time>
      </trkpt>
      <trkpt lat="43.95986" lon="0.39503">
        <ele>142</ele>
        <time>2014-06-23T12:06:38Z</time>
      </trkpt>
      <trkpt lat="43.95985" lon="0.39484">
        <ele>142</ele>
        <time>2014-06-23T12:06:51Z</time>
      </trkpt>
      <trkpt lat="43.95978" lon="0.39464">
        <ele>142</ele>
        <time>2014-06-23T12:07:05Z</time>
      </trkpt>
      <trkpt lat="43.95977" lon="0.3946">
        <ele>142</ele>
        <time>2014-06-23T12:07:08Z</time>
      </trkpt>
      <trkpt lat="43.95973" lon="0.39435">
        <ele>142</ele>
        <time>2014-06-23T12:07:26Z</time>
      </trkpt>
      <trkpt lat="43.95971" lon="0.39421">
        <ele>142</ele>
        <time>2014-06-23T12:07:36Z</time>
      </trkpt>
      <trkpt lat="43.95968" lon="0.39401">
        <ele>141</ele>
        <time>2014-06-23T12:07:53Z</time>
      </trkpt>
      <trkpt lat="43.95965" lon="0.39378">
        <ele>142</ele>
        <time>2014-06-23T12:08:09Z</time>
      </trkpt>
      <trkpt lat="43.95966" lon="0.39355">
        <ele>141</ele>
        <time>2014-06-23T12:08:24Z</time>
      </trkpt>
      <trkpt lat="43.95967" lon="0.39343">
        <ele>141</ele>
        <time>2014-06-23T12:08:33Z</time>
      </trkpt>
      <trkpt lat="43.95968" lon="0.39328">
        <ele>141</ele>
        <time>2014-06-23T12:08:43Z</time>
      </trkpt>
      <trkpt lat="43.95965" lon="0.39322">
        <ele>141</ele>
        <time>2014-06-23T12:08:48Z</time>
      </trkpt>
      <trkpt lat="43.95963" lon="0.39299">
        <ele>142</ele>
        <time>2014-06-23T12:09:04Z</time>
      </trkpt>
      <trkpt lat="43.95968" lon="0.39276">
        <ele>142</ele>
        <time>2014-06-23T12:09:20Z</time>
      </trkpt>
      <trkpt lat="43.95972" lon="0.39258">
        <ele>141</ele>
        <time>2014-06-23T12:09:31Z</time>
      </trkpt>
      <trkpt lat="43.95969" lon="0.39236">
        <ele>142</ele>
        <time>2014-06-23T12:09:47Z</time>
      </trkpt>
      <trkpt lat="43.9597" lon="0.39209">
        <ele>142</ele>
        <time>2014-06-23T12:10:05Z</time>
      </trkpt>
      <trkpt lat="43.95971" lon="0.39199">
        <ele>142</ele>
        <time>2014-06-23T12:10:12Z</time>
      </trkpt>
      <trkpt lat="43.95972" lon="0.39179">
        <ele>142</ele>
        <time>2014-06-23T12:10:28Z</time>
      </trkpt>
      <trkpt lat="43.95968" lon="0.39157">
        <ele>142</ele>
        <time>2014-06-23T12:10:44Z</time>
      </trkpt>
      <trkpt lat="43.95966" lon="0.39153">
        <ele>142</ele>
        <time>2014-06-23T12:10:47Z</time>
      </trkpt>
      <trkpt lat="43.95964" lon="0.39141">
        <ele>142</ele>
        <time>2014-06-23T12:10:56Z</time>
      </trkpt>
      <trkpt lat="43.95963" lon="0.39126">
        <ele>142</ele>
        <time>2014-06-23T12:11:08Z</time>
      </trkpt>
      <trkpt lat="43.95963" lon="0.39121">
        <ele>142</ele>
        <time>2014-06-23T12:11:12Z</time>
      </trkpt>
      <trkpt lat="43.9596" lon="0.39096">
        <ele>142</ele>
        <time>2014-06-23T12:11:31Z</time>
      </trkpt>
      <trkpt lat="43.95959" lon="0.3909">
        <ele>142</ele>
        <time>2014-06-23T12:11:35Z</time>
      </trkpt>
      <trkpt lat="43.95957" lon="0.39079">
        <ele>140</ele>
        <time>2014-06-23T12:11:43Z</time>
      </trkpt>
      <trkpt lat="43.95958" lon="0.39061">
        <ele>139</ele>
        <time>2014-06-23T12:11:55Z</time>
      </trkpt>
      <trkpt lat="43.95955" lon="0.39038">
        <ele>139</ele>
        <time>2014-06-23T12:12:14Z</time>
      </trkpt>
      <trkpt lat="43.95954" lon="0.39026">
        <ele>139</ele>
        <time>2014-06-23T12:12:30Z</time>
      </trkpt>
      <trkpt lat="43.95953" lon="0.39034">
        <ele>139</ele>
        <time>2014-06-23T12:12:49Z</time>
      </trkpt>
      <trkpt lat="43.95955" lon="0.39032">
        <ele>139</ele>
        <time>2014-06-23T12:13:17Z</time>
      </trkpt>
      <trkpt lat="43.95955" lon="0.39035">
        <ele>139</ele>
        <time>2014-06-23T12:14:31Z</time>
      </trkpt>
      <trkpt lat="43.9595" lon="0.39019">
        <ele>139</ele>
        <time>2014-06-23T12:14:46Z</time>
      </trkpt>
      <trkpt lat="43.95944" lon="0.38994">
        <ele>136</ele>
        <time>2014-06-23T12:15:06Z</time>
      </trkpt>
      <trkpt lat="43.95943" lon="0.38963">
        <ele>134</ele>
        <time>2014-06-23T12:15:28Z</time>
      </trkpt>
      <trkpt lat="43.95943" lon="0.38929">
        <ele>133</ele>
        <time>2014-06-23T12:15:51Z</time>
      </trkpt>
      <trkpt lat="43.95942" lon="0.38903">
        <ele>129</ele>
        <time>2014-06-23T12:16:09Z</time>
      </trkpt>
      <trkpt lat="43.95938" lon="0.38868">
        <ele>128</ele>
        <time>2014-06-23T12:16:33Z</time>
      </trkpt>
      <trkpt lat="43.95934" lon="0.38835">
        <ele>127</ele>
        <time>2014-06-23T12:16:56Z</time>
      </trkpt>
      <trkpt lat="43.9593" lon="0.38797">
        <ele>125</ele>
        <time>2014-06-23T12:17:21Z</time>
      </trkpt>
      <trkpt lat="43.95927" lon="0.38764">
        <ele>124</ele>
        <time>2014-06-23T12:17:43Z</time>
      </trkpt>
      <trkpt lat="43.95924" lon="0.3873">
        <ele>122</ele>
        <time>2014-06-23T12:18:05Z</time>
      </trkpt>
      <trkpt lat="43.95921" lon="0.38692">
        <ele>121</ele>
        <time>2014-06-23T12:18:30Z</time>
      </trkpt>
      <trkpt lat="43.95919" lon="0.38651">
        <ele>120</ele>
        <time>2014-06-23T12:18:57Z</time>
      </trkpt>
      <trkpt lat="43.95917" lon="0.38617">
        <ele>118</ele>
        <time>2014-06-23T12:19:19Z</time>
      </trkpt>
      <trkpt lat="43.95917" lon="0.38584">
        <ele>119</ele>
        <time>2014-06-23T12:19:41Z</time>
      </trkpt>
      <trkpt lat="43.9592" lon="0.38565">
        <ele>119</ele>
        <time>2014-06-23T12:19:54Z</time>
      </trkpt>
      <trkpt lat="43.95925" lon="0.38541">
        <ele>118</ele>
        <time>2014-06-23T12:20:11Z</time>
      </trkpt>
      <trkpt lat="43.95929" lon="0.38513">
        <ele>118</ele>
        <time>2014-06-23T12:20:29Z</time>
      </trkpt>
      <trkpt lat="43.9593" lon="0.38483">
        <ele>116</ele>
        <time>2014-06-23T12:20:47Z</time>
      </trkpt>
      <trkpt lat="43.9593" lon="0.3845">
        <ele>115</ele>
        <time>2014-06-23T12:21:08Z</time>
      </trkpt>
      <trkpt lat="43.95931" lon="0.38418">
        <ele>114</ele>
        <time>2014-06-23T12:21:28Z</time>
      </trkpt>
      <trkpt lat="43.95932" lon="0.38388">
        <ele>112</ele>
        <time>2014-06-23T12:21:47Z</time>
      </trkpt>
      <trkpt lat="43.95933" lon="0.38358">
        <ele>112</ele>
        <time>2014-06-23T12:22:07Z</time>
      </trkpt>
      <trkpt lat="43.95929" lon="0.38325">
        <ele>111</ele>
        <time>2014-06-23T12:22:28Z</time>
      </trkpt>
      <trkpt lat="43.95924" lon="0.38295">
        <ele>110</ele>
        <time>2014-06-23T12:22:49Z</time>
      </trkpt>
      <trkpt lat="43.95921" lon="0.38272">
        <ele>111</ele>
        <time>2014-06-23T12:23:05Z</time>
      </trkpt>
      <trkpt lat="43.9592" lon="0.38266">
        <ele>111</ele>
        <time>2014-06-23T12:23:10Z</time>
      </trkpt>
      <trkpt lat="43.95921" lon="0.3826">
        <ele>111</ele>
        <time>2014-06-23T12:23:14Z</time>
      </trkpt>
      <trkpt lat="43.95919" lon="0.38255">
        <ele>112</ele>
        <time>2014-06-23T12:23:35Z</time>
      </trkpt>
      <trkpt lat="43.95916" lon="0.38249">
        <ele>112</ele>
        <time>2014-06-23T12:24:18Z</time>
      </trkpt>
      <trkpt lat="43.95913" lon="0.38249">
        <ele>111</ele>
        <time>2014-06-23T12:24:44Z</time>
      </trkpt>
      <trkpt lat="43.95911" lon="0.38238">
        <ele>110</ele>
        <time>2014-06-23T12:25:08Z</time>
      </trkpt>
      <trkpt lat="43.95909" lon="0.38237">
        <ele>110</ele>
        <time>2014-06-23T12:25:09Z</time>
      </trkpt>
      <trkpt lat="43.95891" lon="0.38227">
        <ele>108</ele>
        <time>2014-06-23T12:25:26Z</time>
      </trkpt>
      <trkpt lat="43.95883" lon="0.38218">
        <ele>107</ele>
        <time>2014-06-23T12:25:41Z</time>
      </trkpt>
      <trkpt lat="43.95874" lon="0.38203">
        <ele>107</ele>
        <time>2014-06-23T12:25:55Z</time>
      </trkpt>
      <trkpt lat="43.95861" lon="0.38184">
        <ele>105</ele>
        <time>2014-06-23T12:26:13Z</time>
      </trkpt>
      <trkpt lat="43.95853" lon="0.38173">
        <ele>104</ele>
        <time>2014-06-23T12:26:25Z</time>
      </trkpt>
      <trkpt lat="43.95838" lon="0.38157">
        <ele>101</ele>
        <time>2014-06-23T12:26:41Z</time>
      </trkpt>
      <trkpt lat="43.95832" lon="0.38142">
        <ele>98</ele>
        <time>2014-06-23T12:26:55Z</time>
      </trkpt>
      <trkpt lat="43.95821" lon="0.38127">
        <ele>97</ele>
        <time>2014-06-23T12:27:10Z</time>
      </trkpt>
      <trkpt lat="43.95812" lon="0.38111">
        <ele>96</ele>
        <time>2014-06-23T12:27:24Z</time>
      </trkpt>
      <trkpt lat="43.95804" lon="0.38097">
        <ele>95</ele>
        <time>2014-06-23T12:27:37Z</time>
      </trkpt>
      <trkpt lat="43.95802" lon="0.38092">
        <ele>95</ele>
        <time>2014-06-23T12:27:41Z</time>
      </trkpt>
      <trkpt lat="43.95789" lon="0.3808">
        <ele>91</ele>
        <time>2014-06-23T12:27:56Z</time>
      </trkpt>
      <trkpt lat="43.9578" lon="0.38071">
        <ele>91</ele>
        <time>2014-06-23T12:28:05Z</time>
      </trkpt>
      <trkpt lat="43.95771" lon="0.3806">
        <ele>90</ele>
        <time>2014-06-23T12:28:17Z</time>
      </trkpt>
      <trkpt lat="43.95753" lon="0.38046">
        <ele>89</ele>
        <time>2014-06-23T12:28:33Z</time>
      </trkpt>
      <trkpt lat="43.9574" lon="0.3804">
        <ele>86</ele>
        <time>2014-06-23T12:28:48Z</time>
      </trkpt>
      <trkpt lat="43.95725" lon="0.38037">
        <ele>86</ele>
        <time>2014-06-23T12:29:06Z</time>
      </trkpt>
      <trkpt lat="43.9572" lon="0.3804">
        <ele>86</ele>
        <time>2014-06-23T12:29:21Z</time>
      </trkpt>
      <trkpt lat="43.95717" lon="0.38037">
        <ele>86</ele>
        <time>2014-06-23T12:29:45Z</time>
      </trkpt>
      <trkpt lat="43.95707" lon="0.3803">
        <ele>86</ele>
        <time>2014-06-23T12:30:00Z</time>
      </trkpt>
      <trkpt lat="43.95693" lon="0.38024">
        <ele>85</ele>
        <time>2014-06-23T12:30:19Z</time>
      </trkpt>
      <trkpt lat="43.95682" lon="0.3802">
        <ele>85</ele>
        <time>2014-06-23T12:30:35Z</time>
      </trkpt>
      <trkpt lat="43.95675" lon="0.38016">
        <ele>85</ele>
        <time>2014-06-23T12:30:43Z</time>
      </trkpt>
      <trkpt lat="43.9566" lon="0.38012">
        <ele>83</ele>
        <time>2014-06-23T12:30:59Z</time>
      </trkpt>
      <trkpt lat="43.95646" lon="0.38011">
        <ele>83</ele>
        <time>2014-06-23T12:31:19Z</time>
      </trkpt>
      <trkpt lat="43.9565" lon="0.37998">
        <ele>82</ele>
        <time>2014-06-23T12:31:35Z</time>
      </trkpt>
      <trkpt lat="43.95653" lon="0.37993">
        <ele>82</ele>
        <time>2014-06-23T12:31:50Z</time>
      </trkpt>
      <trkpt lat="43.95656" lon="0.37991">
        <ele>82</ele>
        <time>2014-06-23T12:32:23Z</time>
      </trkpt>
      <trkpt lat="43.95658" lon="0.37983">
        <ele>82</ele>
        <time>2014-06-23T12:32:54Z</time>
      </trkpt>
      <trkpt lat="43.95661" lon="0.37967">
        <ele>81</ele>
        <time>2014-06-23T12:33:09Z</time>
      </trkpt>
      <trkpt lat="43.95661" lon="0.37963">
        <ele>81</ele>
        <time>2014-06-23T12:33:12Z</time>
      </trkpt>
      <trkpt lat="43.95668" lon="0.37938">
        <ele>81</ele>
        <time>2014-06-23T12:33:29Z</time>
      </trkpt>
      <trkpt lat="43.95664" lon="0.3792">
        <ele>80</ele>
        <time>2014-06-23T12:33:44Z</time>
      </trkpt>
      <trkpt lat="43.95661" lon="0.37911">
        <ele>80</ele>
        <time>2014-06-23T12:33:51Z</time>
      </trkpt>
      <trkpt lat="43.95666" lon="0.3789">
        <ele>81</ele>
        <time>2014-06-23T12:34:07Z</time>
      </trkpt>
      <trkpt lat="43.95668" lon="0.37873">
        <ele>81</ele>
        <time>2014-06-23T12:34:19Z</time>
      </trkpt>
      <trkpt lat="43.95669" lon="0.37869">
        <ele>81</ele>
        <time>2014-06-23T12:34:22Z</time>
      </trkpt>
      <trkpt lat="43.95671" lon="0.37858">
        <ele>81</ele>
        <time>2014-06-23T12:34:31Z</time>
      </trkpt>
      <trkpt lat="43.95672" lon="0.37843">
        <ele>82</ele>
        <time>2014-06-23T12:34:44Z</time>
      </trkpt>
      <trkpt lat="43.95681" lon="0.3783">
        <ele>82</ele>
        <time>2014-06-23T12:34:58Z</time>
      </trkpt>
      <trkpt lat="43.95681" lon="0.37825">
        <ele>82</ele>
        <time>2014-06-23T12:35:01Z</time>
      </trkpt>
      <trkpt lat="43.95686" lon="0.37808">
        <ele>82</ele>
        <time>2014-06-23T12:35:15Z</time>
      </trkpt>
      <trkpt lat="43.9569" lon="0.37786">
        <ele>82</ele>
        <time>2014-06-23T12:35:31Z</time>
      </trkpt>
      <trkpt lat="43.95693" lon="0.37768">
        <ele>82</ele>
        <time>2014-06-23T12:35:45Z</time>
      </trkpt>
      <trkpt lat="43.95697" lon="0.37748">
        <ele>83</ele>
        <time>2014-06-23T12:36:01Z</time>
      </trkpt>
      <trkpt lat="43.95704" lon="0.37721">
        <ele>83</ele>
        <time>2014-06-23T12:36:21Z</time>
      </trkpt>
      <trkpt lat="43.95702" lon="0.37698">
        <ele>84</ele>
        <time>2014-06-23T12:36:37Z</time>
      </trkpt>
      <trkpt lat="43.95704" lon="0.37682">
        <ele>84</ele>
        <time>2014-06-23T12:36:52Z</time>
      </trkpt>
      <trkpt lat="43.95708" lon="0.37665">
        <ele>85</ele>
        <time>2014-06-23T12:37:07Z</time>
      </trkpt>
      <trkpt lat="43.95705" lon="0.37651">
        <ele>85</ele>
        <time>2014-06-23T12:37:20Z</time>
      </trkpt>
      <trkpt lat="43.95708" lon="0.37644">
        <ele>85</ele>
        <time>2014-06-23T12:37:26Z</time>
      </trkpt>
      <trkpt lat="43.95704" lon="0.37624">
        <ele>85</ele>
        <time>2014-06-23T12:37:42Z</time>
      </trkpt>
      <trkpt lat="43.95699" lon="0.37609">
        <ele>85</ele>
        <time>2014-06-23T12:37:58Z</time>
      </trkpt>
      <trkpt lat="43.95689" lon="0.37596">
        <ele>85</ele>
        <time>2014-06-23T12:38:14Z</time>
      </trkpt>
      <trkpt lat="43.9568" lon="0.37586">
        <ele>86</ele>
        <time>2014-06-23T12:38:29Z</time>
      </trkpt>
      <trkpt lat="43.95679" lon="0.37584">
        <ele>86</ele>
        <time>2014-06-23T12:38:32Z</time>
      </trkpt>
      <trkpt lat="43.95675" lon="0.37577">
        <ele>86</ele>
        <time>2014-06-23T12:38:46Z</time>
      </trkpt>
      <trkpt lat="43.95681" lon="0.37572">
        <ele>86</ele>
        <time>2014-06-23T12:39:42Z</time>
      </trkpt>
      <trkpt lat="43.95681" lon="0.37575">
        <ele>86</ele>
        <time>2014-06-23T12:40:20Z</time>
      </trkpt>
      <trkpt lat="43.95683" lon="0.37575">
        <ele>86</ele>
        <time>2014-06-23T12:40:54Z</time>
      </trkpt>
      <trkpt lat="43.95684" lon="0.37578">
        <ele>86</ele>
        <time>2014-06-23T12:41:28Z</time>
      </trkpt>
      <trkpt lat="43.9568" lon="0.37581">
        <ele>86</ele>
        <time>2014-06-23T12:41:50Z</time>
      </trkpt>
      <trkpt lat="43.95681" lon="0.37576">
        <ele>86</ele>
        <time>2014-06-23T12:42:21Z</time>
      </trkpt>
      <trkpt lat="43.95665" lon="0.37562">
        <ele>88</ele>
        <time>2014-06-23T12:42:38Z</time>
      </trkpt>
      <trkpt lat="43.95651" lon="0.37543">
        <ele>88</ele>
        <time>2014-06-23T12:42:56Z</time>
      </trkpt>
      <trkpt lat="43.95637" lon="0.37527">
        <ele>88</ele>
        <time>2014-06-23T12:43:13Z</time>
      </trkpt>
      <trkpt lat="43.95627" lon="0.37514">
        <ele>89</ele>
        <time>2014-06-23T12:43:25Z</time>
      </trkpt>
      <trkpt lat="43.95627" lon="0.37513">
        <ele>89</ele>
        <time>2014-06-23T12:43:26Z</time>
      </trkpt>
      <trkpt lat="43.95625" lon="0.37507">
        <ele>89</ele>
        <time>2014-06-23T12:43:31Z</time>
      </trkpt>
      <trkpt lat="43.95617" lon="0.37488">
        <ele>90</ele>
        <time>2014-06-23T12:43:48Z</time>
      </trkpt>
      <trkpt lat="43.95608" lon="0.37471">
        <ele>91</ele>
        <time>2014-06-23T12:44:03Z</time>
      </trkpt>
      <trkpt lat="43.95599" lon="0.37449">
        <ele>91</ele>
        <time>2014-06-23T12:44:21Z</time>
      </trkpt>
      <trkpt lat="43.95588" lon="0.3743">
        <ele>93</ele>
        <time>2014-06-23T12:44:38Z</time>
      </trkpt>
      <trkpt lat="43.95585" lon="0.37423">
        <ele>93</ele>
        <time>2014-06-23T12:44:54Z</time>
      </trkpt>
      <trkpt lat="43.9558" lon="0.37413">
        <ele>94</ele>
        <time>2014-06-23T12:45:05Z</time>
      </trkpt>
      <trkpt lat="43.95566" lon="0.3739">
        <ele>96</ele>
        <time>2014-06-23T12:45:25Z</time>
      </trkpt>
      <trkpt lat="43.95561" lon="0.37382">
        <ele>96</ele>
        <time>2014-06-23T12:45:32Z</time>
      </trkpt>
      <trkpt lat="43.9556" lon="0.3738">
        <ele>96</ele>
        <time>2014-06-23T12:45:34Z</time>
      </trkpt>
      <trkpt lat="43.95552" lon="0.37357">
        <ele>97</ele>
        <time>2014-06-23T12:45:53Z</time>
      </trkpt>
      <trkpt lat="43.9555" lon="0.3735">
        <ele>97</ele>
        <time>2014-06-23T12:46:08Z</time>
      </trkpt>
      <trkpt lat="43.95549" lon="0.37329">
        <ele>98</ele>
        <time>2014-06-23T12:46:26Z</time>
      </trkpt>
      <trkpt lat="43.95547" lon="0.37321">
        <ele>98</ele>
        <time>2014-06-23T12:46:46Z</time>
      </trkpt>
      <trkpt lat="43.9554" lon="0.37314">
        <ele>98</ele>
        <time>2014-06-23T12:47:01Z</time>
      </trkpt>
      <trkpt lat="43.95531" lon="0.37312">
        <ele>98</ele>
        <time>2014-06-23T12:47:17Z</time>
      </trkpt>
      <trkpt lat="43.95518" lon="0.37301">
        <ele>99</ele>
        <time>2014-06-23T12:47:32Z</time>
      </trkpt>
      <trkpt lat="43.95504" lon="0.37301">
        <ele>99</ele>
        <time>2014-06-23T12:47:49Z</time>
      </trkpt>
      <trkpt lat="43.95496" lon="0.37292">
        <ele>101</ele>
        <time>2014-06-23T12:48:03Z</time>
      </trkpt>
      <trkpt lat="43.9548" lon="0.37281">
        <ele>101</ele>
        <time>2014-06-23T12:48:20Z</time>
      </trkpt>
      <trkpt lat="43.95471" lon="0.37288">
        <ele>101</ele>
        <time>2014-06-23T12:48:34Z</time>
      </trkpt>
      <trkpt lat="43.95459" lon="0.37309">
        <ele>101</ele>
        <time>2014-06-23T12:48:54Z</time>
      </trkpt>
      <trkpt lat="43.95462" lon="0.37324">
        <ele>101</ele>
        <time>2014-06-23T12:49:11Z</time>
      </trkpt>
      <trkpt lat="43.95474" lon="0.37341">
        <ele>100</ele>
        <time>2014-06-23T12:49:29Z</time>
      </trkpt>
      <trkpt lat="43.95476" lon="0.37359">
        <ele>100</ele>
        <time>2014-06-23T12:49:45Z</time>
      </trkpt>
      <trkpt lat="43.95481" lon="0.37381">
        <ele>99</ele>
        <time>2014-06-23T12:50:04Z</time>
      </trkpt>
      <trkpt lat="43.9548" lon="0.3738">
        <ele>99</ele>
        <time>2014-06-23T12:50:12Z</time>
      </trkpt>
    </trkseg>
  </trk>
</gpx>